PTI8737 VHHH-KVCV
Flight info
| Callsign | PTI8737 |
|---|---|
| Flight time | 13h 49m |
| Altitude | 33000 |
| Route | DALOL V631 ENVAR M750 MUKEP Y891 OVSUN Y893 IGMIS Y57 POROT Y809 IDLAN Y812 ADNAP OTR5 KALNA DCT 41N156E 4230N16200E 4330N16700E 4600N17330E DCT 48E80 DCT 49N174W DCT 50N64 DCT 50N55 DCT 49N45 DCT 48N40 DCT 45N30 DCT HEMLO DCT FOT DCT ENI DCT CISKO DCT GMN DCT VCV |
| Aircraft | B737/M-SDE2E3FGHIRWXY/LB1 |
Departure
| Time | 2026-04-14 03:11 |
|---|---|
| Airport | Hong Kong International Airport (VHHH) |
Arrival
| Time | 2026-04-14 17:00 |
|---|---|
| Airport | Southern California Logistics Airport (KVCV) |
| Time | Latitude | Longitude | Altitude | Speed | Heading |
|---|---|---|---|---|---|
| 2026-04-14 02:33 | 22.30179 | 113.90369 | 31 ft | 0 kts | 161° |
| 2026-04-14 02:59 | 22.30180 | 113.90369 | 31 ft | 2 kts | 161° |
| 2026-04-14 02:59 | 22.30203 | 113.90360 | 31 ft | 4 kts | 161° |
| 2026-04-14 02:59 | 22.30229 | 113.90350 | 31 ft | 4 kts | 161° |
| 2026-04-14 02:59 | 22.30253 | 113.90341 | 31 ft | 4 kts | 137° |
| 2026-04-14 03:00 | 22.30260 | 113.90321 | 31 ft | 3 kts | 72° |
| 2026-04-14 03:00 | 22.30253 | 113.90299 | 31 ft | 3 kts | 71° |
| 2026-04-14 03:00 | 22.30252 | 113.90296 | 31 ft | 1 kts | 71° |
| 2026-04-14 03:03 | 22.30273 | 113.90360 | 30 ft | 16 kts | 71° |
| 2026-04-14 03:03 | 22.30311 | 113.90478 | 31 ft | 16 kts | 71° |
| 2026-04-14 03:03 | 22.30348 | 113.90593 | 31 ft | 16 kts | 67° |
| 2026-04-14 03:03 | 22.30459 | 113.90612 | 31 ft | 19 kts | 342° |
| 2026-04-14 03:04 | 22.30579 | 113.90570 | 31 ft | 18 kts | 342° |
| 2026-04-14 03:04 | 22.30695 | 113.90526 | 31 ft | 17 kts | 335° |
| 2026-04-14 03:04 | 22.30804 | 113.90480 | 31 ft | 17 kts | 339° |
| 2026-04-14 03:04 | 22.30914 | 113.90441 | 31 ft | 17 kts | 341° |
| 2026-04-14 03:05 | 22.31026 | 113.90399 | 31 ft | 17 kts | 340° |
| 2026-04-14 03:05 | 22.31115 | 113.90438 | 29 ft | 16 kts | 72° |
| 2026-04-14 03:05 | 22.31148 | 113.90550 | 30 ft | 15 kts | 72° |
| 2026-04-14 03:05 | 22.31182 | 113.90658 | 31 ft | 15 kts | 70° |
| 2026-04-14 03:06 | 22.31215 | 113.90759 | 31 ft | 14 kts | 70° |
| 2026-04-14 03:06 | 22.31247 | 113.90857 | 31 ft | 14 kts | 70° |
| 2026-04-14 03:06 | 22.31289 | 113.90985 | 30 ft | 21 kts | 70° |
| 2026-04-14 03:06 | 22.31339 | 113.91133 | 30 ft | 21 kts | 70° |
| 2026-04-14 03:07 | 22.31386 | 113.91277 | 31 ft | 20 kts | 71° |
| 2026-04-14 03:07 | 22.31430 | 113.91417 | 31 ft | 19 kts | 71° |
| 2026-04-14 03:07 | 22.31472 | 113.91553 | 31 ft | 19 kts | 71° |
| 2026-04-14 03:07 | 22.31513 | 113.91684 | 31 ft | 18 kts | 71° |
| 2026-04-14 03:08 | 22.31555 | 113.91815 | 31 ft | 22 kts | 71° |
| 2026-04-14 03:08 | 22.31617 | 113.92001 | 31 ft | 26 kts | 70° |
| 2026-04-14 03:08 | 22.31676 | 113.92182 | 29 ft | 25 kts | 71° |
| 2026-04-14 03:08 | 22.31731 | 113.92353 | 31 ft | 23 kts | 71° |
| 2026-04-14 03:09 | 22.31783 | 113.92515 | 31 ft | 22 kts | 71° |
| 2026-04-14 03:09 | 22.31833 | 113.92673 | 31 ft | 22 kts | 71° |
| 2026-04-14 03:09 | 22.31881 | 113.92826 | 30 ft | 21 kts | 71° |
| 2026-04-14 03:09 | 22.31998 | 113.92863 | 33 ft | 21 kts | 339° |
| 2026-04-14 03:10 | 22.32060 | 113.92801 | 33 ft | 5 kts | 246° |
| 2026-04-14 03:10 | 22.31994 | 113.92617 | 33 ft | 63 kts | 249° |
| 2026-04-14 03:10 | 22.31761 | 113.91907 | 32 ft | 136 kts | 251° |
| 2026-04-14 03:10 | 22.31398 | 113.90724 | 89 ft | 191 kts | 248° |
| 2026-04-14 03:11 | 22.30972 | 113.89320 | 938 ft | 192 kts | 248° |
| 2026-04-14 03:11 | 22.30659 | 113.88438 | 1733 ft | 192 kts | 245° |
| 2026-04-14 03:11 | 22.30189 | 113.87035 | 2336 ft | 209 kts | 247° |
| 2026-04-14 03:11 | 22.29684 | 113.85475 | 2639 ft | 230 kts | 248° |
| 2026-04-14 03:12 | 22.29156 | 113.83827 | 3276 ft | 235 kts | 249° |
| 2026-04-14 03:12 | 22.28614 | 113.82137 | 3968 ft | 240 kts | 249° |
| 2026-04-14 03:12 | 22.28069 | 113.80438 | 4852 ft | 239 kts | 249° |
| 2026-04-14 03:12 | 22.27521 | 113.78735 | 5611 ft | 242 kts | 249° |
| 2026-04-14 03:13 | 22.26962 | 113.77003 | 6344 ft | 245 kts | 250° |
| 2026-04-14 03:13 | 22.26402 | 113.75268 | 7097 ft | 244 kts | 250° |
| 2026-04-14 03:13 | 22.25614 | 113.73651 | 7771 ft | 247 kts | 227° |
| 2026-04-14 03:13 | 22.24288 | 113.72449 | 8446 ft | 252 kts | 216° |
| 2026-04-14 03:14 | 22.22760 | 113.71471 | 9019 ft | 261 kts | 203° |
| 2026-04-14 03:14 | 22.20930 | 113.71228 | 9608 ft | 273 kts | 175° |
| 2026-04-14 03:14 | 22.19088 | 113.71826 | 10237 ft | 281 kts | 160° |
| 2026-04-14 03:14 | 22.17295 | 113.72673 | 10900 ft | 282 kts | 160° |
| 2026-04-14 03:15 | 22.15499 | 113.73527 | 11582 ft | 282 kts | 160° |
| 2026-04-14 03:15 | 22.13698 | 113.74367 | 12233 ft | 283 kts | 161° |
| 2026-04-14 03:15 | 22.11919 | 113.75298 | 12848 ft | 290 kts | 149° |
| 2026-04-14 03:15 | 22.10282 | 113.76699 | 13052 ft | 312 kts | 143° |
| 2026-04-14 03:16 | 22.08579 | 113.78271 | 13228 ft | 332 kts | 143° |
| 2026-04-14 03:16 | 22.06948 | 113.80124 | 13495 ft | 352 kts | 124° |
| 2026-04-14 03:16 | 22.06018 | 113.82600 | 14044 ft | 362 kts | 105° |
| 2026-04-14 03:16 | 22.05507 | 113.85259 | 14654 ft | 364 kts | 103° |
| 2026-04-14 03:17 | 22.05023 | 113.87951 | 15212 ft | 368 kts | 103° |
| 2026-04-14 03:17 | 22.03977 | 113.93398 | 16314 ft | 374 kts | 104° |
| 2026-04-14 03:17 | 22.03431 | 113.96152 | 16860 ft | 378 kts | 104° |
| 2026-04-14 03:18 | 22.02876 | 113.98932 | 17400 ft | 381 kts | 104° |
| 2026-04-14 03:18 | 22.02318 | 114.01730 | 17934 ft | 384 kts | 104° |
| 2026-04-14 03:18 | 22.01754 | 114.04555 | 18437 ft | 387 kts | 104° |
| 2026-04-14 03:18 | 22.01187 | 114.07404 | 18885 ft | 391 kts | 104° |
| 2026-04-14 03:19 | 22.00613 | 114.10277 | 19358 ft | 393 kts | 104° |
| 2026-04-14 03:19 | 21.99946 | 114.13134 | 19792 ft | 395 kts | 114° |
| 2026-04-14 03:19 | 21.98735 | 114.15784 | 20233 ft | 395 kts | 122° |
| 2026-04-14 03:19 | 21.97392 | 114.18379 | 20669 ft | 399 kts | 121° |
| 2026-04-14 03:20 | 21.96082 | 114.20984 | 21108 ft | 402 kts | 120° |
| 2026-04-14 03:20 | 21.94770 | 114.23659 | 21546 ft | 406 kts | 120° |
| 2026-04-14 03:20 | 21.93460 | 114.26364 | 21972 ft | 409 kts | 120° |
| 2026-04-14 03:20 | 21.92143 | 114.29094 | 22401 ft | 412 kts | 120° |
| 2026-04-14 03:21 | 21.90815 | 114.31845 | 22825 ft | 416 kts | 120° |
| 2026-04-14 03:21 | 21.89473 | 114.34621 | 23242 ft | 419 kts | 120° |
| 2026-04-14 03:21 | 21.88122 | 114.37412 | 23658 ft | 422 kts | 120° |
| 2026-04-14 03:21 | 21.86765 | 114.40213 | 24024 ft | 424 kts | 120° |
| 2026-04-14 03:22 | 21.85398 | 114.43029 | 24415 ft | 425 kts | 120° |
| 2026-04-14 03:22 | 21.84194 | 114.45948 | 24766 ft | 430 kts | 110° |
| 2026-04-14 03:22 | 21.83347 | 114.49045 | 25124 ft | 433 kts | 107° |
| 2026-04-14 03:22 | 21.82595 | 114.52192 | 25475 ft | 435 kts | 105° |
| 2026-04-14 03:23 | 21.81856 | 114.55358 | 25821 ft | 438 kts | 106° |
| 2026-04-14 03:23 | 21.81093 | 114.58538 | 26162 ft | 440 kts | 107° |
| 2026-04-14 03:23 | 21.80301 | 114.61732 | 26503 ft | 442 kts | 107° |
| 2026-04-14 03:23 | 21.79489 | 114.64930 | 26851 ft | 444 kts | 107° |
| 2026-04-14 03:24 | 21.78664 | 114.68133 | 27238 ft | 445 kts | 108° |
| 2026-04-14 03:24 | 21.77831 | 114.71347 | 27564 ft | 447 kts | 108° |
| 2026-04-14 03:24 | 21.76994 | 114.74576 | 27861 ft | 450 kts | 108° |
| 2026-04-14 03:24 | 21.76152 | 114.77830 | 28161 ft | 453 kts | 108° |
| 2026-04-14 03:25 | 21.75306 | 114.81096 | 28469 ft | 455 kts | 108° |
| 2026-04-14 03:25 | 21.74484 | 114.84390 | 28771 ft | 458 kts | 103° |
| 2026-04-14 03:25 | 21.74209 | 114.87816 | 29024 ft | 463 kts | 91° |
| 2026-04-14 03:25 | 21.74227 | 114.91282 | 29354 ft | 464 kts | 90° |
| 2026-04-14 03:26 | 21.74284 | 114.94759 | 29631 ft | 467 kts | 90° |
| 2026-04-14 03:26 | 21.74332 | 114.98261 | 29902 ft | 469 kts | 90° |
| 2026-04-14 03:26 | 21.74356 | 115.01781 | 30138 ft | 472 kts | 91° |
| 2026-04-14 03:26 | 21.74359 | 115.05317 | 30362 ft | 474 kts | 91° |
| 2026-04-14 03:27 | 21.74349 | 115.08869 | 30618 ft | 475 kts | 91° |
| 2026-04-14 03:27 | 21.74335 | 115.12423 | 30869 ft | 476 kts | 91° |
| 2026-04-14 03:27 | 21.74320 | 115.15987 | 31107 ft | 478 kts | 91° |
| 2026-04-14 03:27 | 21.74306 | 115.19568 | 31327 ft | 480 kts | 91° |
| 2026-04-14 03:28 | 21.74294 | 115.23162 | 31540 ft | 481 kts | 91° |
| 2026-04-14 03:28 | 21.74285 | 115.26765 | 31759 ft | 483 kts | 91° |
| 2026-04-14 03:28 | 21.74279 | 115.30383 | 31977 ft | 484 kts | 91° |
| 2026-04-14 03:28 | 21.74272 | 115.34010 | 32183 ft | 486 kts | 91° |
| 2026-04-14 03:29 | 21.74264 | 115.37647 | 32396 ft | 487 kts | 91° |
| 2026-04-14 03:29 | 21.74255 | 115.41295 | 32595 ft | 488 kts | 91° |
| 2026-04-14 03:29 | 21.74245 | 115.44951 | 32782 ft | 490 kts | 91° |
| 2026-04-14 03:29 | 21.74233 | 115.48626 | 32959 ft | 492 kts | 91° |
| 2026-04-14 03:30 | 21.74209 | 115.55954 | 32982 ft | 487 kts | 91° |
| 2026-04-14 03:30 | 21.74183 | 115.63195 | 32983 ft | 482 kts | 91° |
| 2026-04-14 03:31 | 21.74158 | 115.70335 | 32999 ft | 479 kts | 91° |
| 2026-04-14 03:31 | 21.74130 | 115.77496 | 32991 ft | 478 kts | 91° |
| 2026-04-14 03:32 | 21.74098 | 115.84630 | 32992 ft | 477 kts | 91° |
| 2026-04-14 03:32 | 21.74064 | 115.91751 | 32998 ft | 476 kts | 91° |
| 2026-04-14 03:33 | 21.74026 | 115.98870 | 32996 ft | 476 kts | 91° |
| 2026-04-14 03:33 | 21.73985 | 116.05986 | 32994 ft | 476 kts | 91° |
| 2026-04-14 03:34 | 21.73919 | 116.16690 | 32999 ft | 478 kts | 91° |
| 2026-04-14 03:35 | 21.73870 | 116.23854 | 33000 ft | 480 kts | 91° |
| 2026-04-14 03:35 | 21.73819 | 116.31035 | 33002 ft | 481 kts | 91° |
| 2026-04-14 03:36 | 21.73764 | 116.38235 | 32993 ft | 482 kts | 91° |
| 2026-04-14 03:36 | 21.73706 | 116.45442 | 32993 ft | 482 kts | 91° |
| 2026-04-14 03:37 | 21.73645 | 116.52649 | 32990 ft | 482 kts | 91° |
| 2026-04-14 03:37 | 21.73580 | 116.59856 | 32998 ft | 481 kts | 91° |
| 2026-04-14 03:38 | 21.73514 | 116.67008 | 32995 ft | 481 kts | 91° |
| 2026-04-14 03:38 | 21.73445 | 116.74193 | 32996 ft | 480 kts | 91° |
| 2026-04-14 03:39 | 21.74337 | 116.81288 | 32999 ft | 480 kts | 72° |
| 2026-04-14 03:39 | 21.76711 | 116.87981 | 32998 ft | 479 kts | 67° |
| 2026-04-14 03:40 | 21.79212 | 116.94616 | 33008 ft | 479 kts | 68° |
| 2026-04-14 03:40 | 21.81666 | 117.01274 | 32998 ft | 479 kts | 68° |
| 2026-04-14 03:41 | 21.84083 | 117.07950 | 32997 ft | 478 kts | 68° |
| 2026-04-14 03:41 | 21.86490 | 117.14627 | 32999 ft | 478 kts | 68° |
| 2026-04-14 03:42 | 21.88895 | 117.21304 | 33000 ft | 478 kts | 68° |
| 2026-04-14 03:42 | 21.91298 | 117.27978 | 32998 ft | 478 kts | 68° |
| 2026-04-14 03:43 | 21.93697 | 117.34653 | 33006 ft | 478 kts | 68° |
| 2026-04-14 03:43 | 21.96095 | 117.41333 | 32993 ft | 478 kts | 68° |
| 2026-04-14 03:44 | 21.98492 | 117.48019 | 32999 ft | 479 kts | 68° |
| 2026-04-14 03:44 | 22.01499 | 117.54333 | 33018 ft | 477 kts | 57° |
| 2026-04-14 03:45 | 22.05039 | 117.60433 | 33001 ft | 477 kts | 57° |
| 2026-04-14 03:45 | 22.08525 | 117.66471 | 32997 ft | 478 kts | 57° |
| 2026-04-14 03:46 | 22.11996 | 117.72586 | 33002 ft | 478 kts | 57° |
| 2026-04-14 03:46 | 22.15452 | 117.78715 | 32996 ft | 478 kts | 57° |
| 2026-04-14 03:47 | 22.18911 | 117.84854 | 32996 ft | 479 kts | 57° |
| 2026-04-14 03:47 | 22.22372 | 117.91000 | 32997 ft | 479 kts | 57° |
| 2026-04-14 03:48 | 22.25833 | 117.97154 | 33004 ft | 480 kts | 57° |
| 2026-04-14 03:48 | 22.29320 | 118.03297 | 32995 ft | 480 kts | 56° |
| 2026-04-14 03:49 | 22.32902 | 118.09382 | 33004 ft | 480 kts | 56° |
| 2026-04-14 03:49 | 22.36481 | 118.15470 | 32991 ft | 480 kts | 56° |
| 2026-04-14 03:50 | 22.40044 | 118.21571 | 32987 ft | 480 kts | 56° |
| 2026-04-14 03:50 | 22.43527 | 118.27671 | 32998 ft | 480 kts | 57° |
| 2026-04-14 03:51 | 22.46999 | 118.33836 | 32997 ft | 480 kts | 57° |
| 2026-04-14 03:51 | 22.50478 | 118.40000 | 32996 ft | 480 kts | 57° |
| 2026-04-14 03:52 | 22.53957 | 118.46160 | 32992 ft | 480 kts | 57° |
| 2026-04-14 03:52 | 22.57437 | 118.52323 | 32996 ft | 480 kts | 57° |
| 2026-04-14 03:53 | 22.60937 | 118.58464 | 32996 ft | 479 kts | 57° |
| 2026-04-14 03:53 | 22.64443 | 118.64598 | 32994 ft | 479 kts | 57° |
| 2026-04-14 03:54 | 22.67940 | 118.70730 | 33004 ft | 478 kts | 57° |
| 2026-04-14 03:54 | 22.71432 | 118.76867 | 32992 ft | 478 kts | 57° |
| 2026-04-14 03:55 | 22.74915 | 118.82999 | 32995 ft | 478 kts | 57° |
| 2026-04-14 03:55 | 22.78394 | 118.89131 | 32992 ft | 477 kts | 57° |
| 2026-04-14 03:56 | 22.81869 | 118.95262 | 32987 ft | 478 kts | 57° |
| 2026-04-14 03:56 | 22.85343 | 119.01400 | 32999 ft | 477 kts | 57° |
| 2026-04-14 03:57 | 22.88812 | 119.07535 | 32989 ft | 477 kts | 57° |
| 2026-04-14 03:57 | 22.92279 | 119.13674 | 32992 ft | 477 kts | 57° |
| 2026-04-14 03:58 | 22.95745 | 119.19819 | 32991 ft | 477 kts | 57° |
| 2026-04-14 03:58 | 22.99205 | 119.25961 | 32993 ft | 477 kts | 58° |
| 2026-04-14 03:59 | 23.02666 | 119.32111 | 32992 ft | 478 kts | 57° |
| 2026-04-14 03:59 | 23.06128 | 119.38271 | 32990 ft | 478 kts | 57° |
| 2026-04-14 04:00 | 23.09003 | 119.43393 | 32988 ft | 478 kts | 57° |
| 2026-04-14 04:00 | 23.12462 | 119.49562 | 32994 ft | 478 kts | 58° |
| 2026-04-14 04:01 | 23.15923 | 119.55743 | 32979 ft | 479 kts | 58° |
| 2026-04-14 04:01 | 23.19381 | 119.61925 | 32975 ft | 479 kts | 58° |
| 2026-04-14 04:02 | 23.22837 | 119.68117 | 32961 ft | 479 kts | 58° |
| 2026-04-14 04:02 | 23.26295 | 119.74322 | 32967 ft | 479 kts | 58° |
| 2026-04-14 04:03 | 23.29748 | 119.80525 | 32959 ft | 480 kts | 58° |
| 2026-04-14 04:03 | 23.33204 | 119.86742 | 32970 ft | 480 kts | 58° |
| 2026-04-14 04:04 | 23.36809 | 119.92830 | 33016 ft | 486 kts | 49° |
| 2026-04-14 04:04 | 23.41614 | 119.98085 | 33334 ft | 487 kts | 41° |
| 2026-04-14 04:04 | 23.44104 | 120.00581 | 33625 ft | 486 kts | 40° |
| 2026-04-14 04:05 | 23.46560 | 120.03041 | 33880 ft | 486 kts | 41° |
| 2026-04-14 04:05 | 23.49036 | 120.05544 | 34103 ft | 486 kts | 41° |
| 2026-04-14 04:05 | 23.51502 | 120.08059 | 34295 ft | 486 kts | 41° |
| 2026-04-14 04:05 | 23.53962 | 120.10588 | 34463 ft | 486 kts | 41° |
| 2026-04-14 04:06 | 23.56417 | 120.13122 | 34623 ft | 486 kts | 42° |
| 2026-04-14 04:06 | 23.58868 | 120.15658 | 34801 ft | 486 kts | 42° |
| 2026-04-14 04:06 | 23.61320 | 120.18198 | 34963 ft | 485 kts | 42° |
| 2026-04-14 04:07 | 23.66240 | 120.23294 | 34996 ft | 489 kts | 41° |
| 2026-04-14 04:07 | 23.71168 | 120.28402 | 34993 ft | 488 kts | 41° |
| 2026-04-14 04:08 | 23.76084 | 120.33501 | 34992 ft | 487 kts | 41° |
| 2026-04-14 04:08 | 23.80986 | 120.38593 | 34990 ft | 486 kts | 41° |
| 2026-04-14 04:09 | 23.85880 | 120.43681 | 34992 ft | 485 kts | 42° |
| 2026-04-14 04:09 | 23.90768 | 120.48768 | 34997 ft | 485 kts | 42° |
| 2026-04-14 04:10 | 23.95636 | 120.53878 | 34993 ft | 485 kts | 42° |
| 2026-04-14 04:10 | 24.00494 | 120.59011 | 35001 ft | 486 kts | 42° |
| 2026-04-14 04:11 | 24.05322 | 120.64114 | 35004 ft | 486 kts | 42° |
| 2026-04-14 04:11 | 24.10190 | 120.69261 | 35019 ft | 487 kts | 42° |
| 2026-04-14 04:12 | 24.15067 | 120.74422 | 35008 ft | 488 kts | 42° |
| 2026-04-14 04:12 | 24.19955 | 120.79600 | 35006 ft | 490 kts | 42° |
| 2026-04-14 04:13 | 24.24854 | 120.84796 | 35001 ft | 491 kts | 42° |
| 2026-04-14 04:13 | 24.29761 | 120.90007 | 35003 ft | 491 kts | 42° |
| 2026-04-14 04:14 | 24.34672 | 120.95228 | 35014 ft | 493 kts | 41° |
| 2026-04-14 04:14 | 24.39594 | 121.00467 | 35014 ft | 493 kts | 42° |
| 2026-04-14 04:15 | 24.44195 | 121.06015 | 35049 ft | 492 kts | 50° |
| 2026-04-14 04:15 | 24.48444 | 121.11930 | 35013 ft | 494 kts | 50° |
| 2026-04-14 04:16 | 24.52676 | 121.17857 | 34985 ft | 493 kts | 50° |
| 2026-04-14 04:16 | 24.56928 | 121.23751 | 35005 ft | 492 kts | 50° |
| 2026-04-14 04:17 | 24.61196 | 121.29643 | 34997 ft | 493 kts | 50° |
| 2026-04-14 04:17 | 24.65474 | 121.35554 | 35005 ft | 495 kts | 50° |
| 2026-04-14 04:18 | 24.69755 | 121.41480 | 34991 ft | 495 kts | 50° |
| 2026-04-14 04:18 | 24.74038 | 121.47419 | 34978 ft | 496 kts | 50° |
| 2026-04-14 04:19 | 24.78287 | 121.53317 | 34965 ft | 493 kts | 50° |
| 2026-04-14 04:19 | 24.82541 | 121.59231 | 34959 ft | 493 kts | 50° |
| 2026-04-14 04:20 | 24.86792 | 121.65146 | 34953 ft | 492 kts | 50° |
| 2026-04-14 04:20 | 24.91050 | 121.71041 | 34948 ft | 491 kts | 48° |
| 2026-04-14 04:21 | 24.95515 | 121.76735 | 34954 ft | 491 kts | 46° |
| 2026-04-14 04:21 | 25.00027 | 121.82386 | 34955 ft | 491 kts | 46° |
| 2026-04-14 04:22 | 25.04512 | 121.88091 | 34939 ft | 492 kts | 47° |
| 2026-04-14 04:22 | 25.08980 | 121.93817 | 34940 ft | 493 kts | 47° |
| 2026-04-14 04:23 | 25.13455 | 121.99553 | 34942 ft | 493 kts | 47° |
| 2026-04-14 04:23 | 25.17919 | 122.05314 | 34950 ft | 494 kts | 47° |
| 2026-04-14 04:24 | 25.22375 | 122.11096 | 34945 ft | 495 kts | 47° |
| 2026-04-14 04:24 | 25.26838 | 122.16889 | 34949 ft | 495 kts | 47° |
| 2026-04-14 04:25 | 25.31304 | 122.22690 | 34947 ft | 496 kts | 47° |
| 2026-04-14 04:25 | 25.35741 | 122.28459 | 34944 ft | 496 kts | 47° |
| 2026-04-14 04:26 | 25.40209 | 122.34277 | 34943 ft | 496 kts | 47° |
| 2026-04-14 04:26 | 25.44706 | 122.40140 | 34941 ft | 496 kts | 47° |
| 2026-04-14 04:27 | 25.49144 | 122.45933 | 34949 ft | 496 kts | 47° |
| 2026-04-14 04:27 | 25.53615 | 122.51761 | 34943 ft | 496 kts | 47° |
| 2026-04-14 04:28 | 25.58097 | 122.57574 | 34938 ft | 497 kts | 47° |
| 2026-04-14 04:28 | 25.62582 | 122.63397 | 34948 ft | 496 kts | 47° |
| 2026-04-14 04:29 | 25.67054 | 122.69218 | 34942 ft | 496 kts | 47° |
| 2026-04-14 04:29 | 25.71528 | 122.75050 | 34945 ft | 496 kts | 47° |
| 2026-04-14 04:30 | 25.75996 | 122.80882 | 34943 ft | 496 kts | 47° |
| 2026-04-14 04:30 | 25.80466 | 122.86724 | 34947 ft | 497 kts | 47° |
| 2026-04-14 04:31 | 25.84939 | 122.92578 | 34942 ft | 497 kts | 47° |
| 2026-04-14 04:31 | 25.91644 | 123.01366 | 34939 ft | 497 kts | 47° |
| 2026-04-14 04:32 | 25.96113 | 123.07238 | 34946 ft | 498 kts | 47° |
| 2026-04-14 04:32 | 26.00589 | 123.13130 | 34946 ft | 499 kts | 47° |
| 2026-04-14 04:33 | 26.05068 | 123.19034 | 34940 ft | 499 kts | 47° |
| 2026-04-14 04:33 | 26.09546 | 123.24945 | 34942 ft | 500 kts | 47° |
| 2026-04-14 04:34 | 26.14028 | 123.30868 | 34955 ft | 501 kts | 47° |
| 2026-04-14 04:34 | 26.18518 | 123.36809 | 34942 ft | 502 kts | 47° |
| 2026-04-14 04:35 | 26.23006 | 123.42756 | 34942 ft | 502 kts | 47° |
| 2026-04-14 04:35 | 26.27500 | 123.48719 | 34942 ft | 502 kts | 47° |
| 2026-04-14 04:36 | 26.31958 | 123.54642 | 34958 ft | 502 kts | 47° |
| 2026-04-14 04:36 | 26.36451 | 123.60619 | 34943 ft | 503 kts | 47° |
| 2026-04-14 04:37 | 26.40946 | 123.66607 | 34941 ft | 504 kts | 47° |
| 2026-04-14 04:37 | 26.45441 | 123.72602 | 34948 ft | 504 kts | 47° |
| 2026-04-14 04:38 | 26.49934 | 123.78603 | 34938 ft | 504 kts | 47° |
| 2026-04-14 04:38 | 26.54426 | 123.84613 | 34942 ft | 504 kts | 47° |
| 2026-04-14 04:39 | 26.58919 | 123.90631 | 34942 ft | 504 kts | 47° |
| 2026-04-14 04:39 | 26.63410 | 123.96655 | 34940 ft | 504 kts | 47° |
| 2026-04-14 04:40 | 26.67897 | 124.02675 | 34943 ft | 504 kts | 47° |
| 2026-04-14 04:41 | 26.74639 | 124.11707 | 34945 ft | 504 kts | 47° |
| 2026-04-14 04:41 | 26.79126 | 124.17729 | 34942 ft | 504 kts | 47° |
| 2026-04-14 04:42 | 26.83607 | 124.23755 | 34935 ft | 504 kts | 47° |
| 2026-04-14 04:42 | 26.88084 | 124.29785 | 34957 ft | 503 kts | 47° |
| 2026-04-14 04:43 | 26.92528 | 124.35778 | 34939 ft | 503 kts | 47° |
| 2026-04-14 04:43 | 26.97001 | 124.41816 | 34936 ft | 503 kts | 47° |
| 2026-04-14 04:44 | 27.01474 | 124.47850 | 34933 ft | 503 kts | 47° |
| 2026-04-14 04:44 | 27.05952 | 124.53883 | 34965 ft | 503 kts | 46° |
| 2026-04-14 04:45 | 27.10430 | 124.59926 | 34946 ft | 504 kts | 46° |
| 2026-04-14 04:45 | 27.14908 | 124.65980 | 34940 ft | 504 kts | 46° |
| 2026-04-14 04:46 | 27.19382 | 124.72039 | 34934 ft | 504 kts | 46° |
| 2026-04-14 04:46 | 27.23860 | 124.78112 | 34956 ft | 504 kts | 47° |
| 2026-04-14 04:47 | 27.28336 | 124.84189 | 34942 ft | 505 kts | 46° |
| 2026-04-14 04:47 | 27.32786 | 124.90241 | 34939 ft | 506 kts | 46° |
| 2026-04-14 04:48 | 27.37266 | 124.96342 | 34935 ft | 506 kts | 47° |
| 2026-04-14 04:48 | 27.41754 | 125.02450 | 34956 ft | 506 kts | 46° |
| 2026-04-14 04:49 | 27.46270 | 125.08539 | 34945 ft | 507 kts | 46° |
| 2026-04-14 04:49 | 27.50795 | 125.14635 | 34935 ft | 508 kts | 46° |
| 2026-04-14 04:50 | 27.55321 | 125.20749 | 34937 ft | 508 kts | 46° |
| 2026-04-14 04:50 | 27.59843 | 125.26874 | 34950 ft | 508 kts | 46° |
| 2026-04-14 04:51 | 27.64365 | 125.33010 | 34933 ft | 509 kts | 46° |
| 2026-04-14 04:51 | 27.68892 | 125.39160 | 34930 ft | 509 kts | 46° |
| 2026-04-14 04:52 | 27.72651 | 125.44273 | 34932 ft | 510 kts | 46° |
| 2026-04-14 04:52 | 27.77176 | 125.50437 | 34944 ft | 510 kts | 46° |
| 2026-04-14 04:53 | 27.81701 | 125.56609 | 34933 ft | 510 kts | 46° |
| 2026-04-14 04:53 | 27.86223 | 125.62786 | 34932 ft | 510 kts | 46° |
| 2026-04-14 04:54 | 27.90746 | 125.68973 | 34934 ft | 510 kts | 46° |
| 2026-04-14 04:54 | 27.95266 | 125.75166 | 34942 ft | 511 kts | 46° |
| 2026-04-14 04:55 | 27.99786 | 125.81367 | 34927 ft | 511 kts | 46° |
| 2026-04-14 04:55 | 28.04303 | 125.87573 | 34926 ft | 511 kts | 46° |
| 2026-04-14 04:56 | 28.08821 | 125.93789 | 34926 ft | 511 kts | 46° |
| 2026-04-14 04:56 | 28.13304 | 125.99968 | 34926 ft | 511 kts | 46° |
| 2026-04-14 04:57 | 28.17820 | 126.06199 | 34929 ft | 512 kts | 46° |
| 2026-04-14 04:57 | 28.22332 | 126.12435 | 34928 ft | 512 kts | 46° |
| 2026-04-14 04:58 | 28.26849 | 126.18687 | 34924 ft | 512 kts | 46° |
| 2026-04-14 04:58 | 28.31366 | 126.24947 | 34924 ft | 513 kts | 46° |
| 2026-04-14 04:59 | 28.35882 | 126.31215 | 34923 ft | 513 kts | 46° |
| 2026-04-14 04:59 | 28.40390 | 126.37483 | 34927 ft | 513 kts | 46° |
| 2026-04-14 05:00 | 28.44901 | 126.43764 | 34928 ft | 513 kts | 46° |
| 2026-04-14 05:00 | 28.49403 | 126.50042 | 34929 ft | 512 kts | 46° |
| 2026-04-14 05:01 | 28.53900 | 126.56321 | 34933 ft | 512 kts | 46° |
| 2026-04-14 05:01 | 28.58390 | 126.62601 | 34923 ft | 512 kts | 47° |
| 2026-04-14 05:02 | 28.62877 | 126.68886 | 34936 ft | 512 kts | 46° |
| 2026-04-14 05:02 | 28.67363 | 126.75178 | 34919 ft | 511 kts | 46° |
| 2026-04-14 05:03 | 28.71839 | 126.81466 | 34917 ft | 511 kts | 46° |
| 2026-04-14 05:03 | 28.76282 | 126.87717 | 34925 ft | 511 kts | 46° |
| 2026-04-14 05:04 | 28.80747 | 126.94008 | 34933 ft | 511 kts | 46° |
| 2026-04-14 05:04 | 28.85214 | 127.00312 | 34918 ft | 511 kts | 46° |
| 2026-04-14 05:05 | 28.89673 | 127.06614 | 34924 ft | 510 kts | 46° |
| 2026-04-14 05:05 | 28.94128 | 127.12921 | 34943 ft | 510 kts | 46° |
| 2026-04-14 05:06 | 28.98583 | 127.19236 | 34926 ft | 511 kts | 46° |
| 2026-04-14 05:06 | 29.03036 | 127.25558 | 34914 ft | 511 kts | 46° |
| 2026-04-14 05:07 | 29.07485 | 127.31884 | 34926 ft | 511 kts | 46° |
| 2026-04-14 05:07 | 29.11932 | 127.38219 | 34934 ft | 511 kts | 46° |
| 2026-04-14 05:08 | 29.16383 | 127.44567 | 34924 ft | 512 kts | 46° |
| 2026-04-14 05:08 | 29.20834 | 127.50925 | 34919 ft | 512 kts | 46° |
| 2026-04-14 05:09 | 29.25280 | 127.57287 | 34933 ft | 512 kts | 46° |
| 2026-04-14 05:09 | 29.29725 | 127.63657 | 34924 ft | 512 kts | 46° |
| 2026-04-14 05:10 | 29.34170 | 127.70036 | 34921 ft | 512 kts | 46° |
| 2026-04-14 05:10 | 29.38612 | 127.76422 | 34918 ft | 512 kts | 47° |
| 2026-04-14 05:11 | 29.43042 | 127.82801 | 34922 ft | 512 kts | 46° |
| 2026-04-14 05:11 | 29.47472 | 127.89190 | 34918 ft | 511 kts | 46° |
| 2026-04-14 05:12 | 29.51899 | 127.95583 | 34906 ft | 511 kts | 46° |
| 2026-04-14 05:12 | 29.56321 | 128.01972 | 34939 ft | 511 kts | 46° |
| 2026-04-14 05:13 | 29.60744 | 128.08365 | 34918 ft | 511 kts | 46° |
| 2026-04-14 05:13 | 29.65166 | 128.14768 | 34913 ft | 511 kts | 46° |
| 2026-04-14 05:14 | 29.69583 | 128.21177 | 34913 ft | 511 kts | 46° |
| 2026-04-14 05:14 | 29.73992 | 128.27584 | 34913 ft | 511 kts | 46° |
| 2026-04-14 05:15 | 29.78404 | 128.34006 | 34918 ft | 511 kts | 46° |
| 2026-04-14 05:15 | 29.82785 | 128.40392 | 34912 ft | 512 kts | 46° |
| 2026-04-14 05:16 | 29.87225 | 128.46876 | 34937 ft | 512 kts | 46° |
| 2026-04-14 05:16 | 29.91611 | 128.53290 | 34915 ft | 513 kts | 46° |
| 2026-04-14 05:17 | 29.96036 | 128.59771 | 34910 ft | 515 kts | 46° |
| 2026-04-14 05:17 | 30.00461 | 128.66264 | 34900 ft | 515 kts | 46° |
| 2026-04-14 05:18 | 30.04890 | 128.72773 | 34907 ft | 516 kts | 46° |
| 2026-04-14 05:18 | 30.09320 | 128.79295 | 34904 ft | 516 kts | 46° |
| 2026-04-14 05:19 | 30.13748 | 128.85823 | 34900 ft | 516 kts | 46° |
| 2026-04-14 05:19 | 30.18167 | 128.92351 | 34915 ft | 516 kts | 46° |
| 2026-04-14 05:20 | 30.22587 | 128.98888 | 34898 ft | 516 kts | 46° |
| 2026-04-14 05:20 | 30.27002 | 129.05427 | 34901 ft | 515 kts | 46° |
| 2026-04-14 05:21 | 30.31408 | 129.11962 | 34916 ft | 515 kts | 46° |
| 2026-04-14 05:21 | 30.35808 | 129.18501 | 34902 ft | 515 kts | 46° |
| 2026-04-14 05:22 | 30.40206 | 129.25048 | 34898 ft | 515 kts | 46° |
| 2026-04-14 05:22 | 30.44596 | 129.31593 | 34899 ft | 515 kts | 46° |
| 2026-04-14 05:23 | 30.48990 | 129.38155 | 34901 ft | 515 kts | 46° |
| 2026-04-14 05:23 | 30.53379 | 129.44721 | 34902 ft | 515 kts | 46° |
| 2026-04-14 05:24 | 30.57771 | 129.51303 | 34901 ft | 516 kts | 46° |
| 2026-04-14 05:24 | 30.62134 | 129.57851 | 34906 ft | 517 kts | 46° |
| 2026-04-14 05:25 | 30.66534 | 129.64467 | 34902 ft | 518 kts | 46° |
| 2026-04-14 05:25 | 30.70931 | 129.71090 | 34902 ft | 518 kts | 46° |
| 2026-04-14 05:26 | 30.75331 | 129.77728 | 34914 ft | 519 kts | 46° |
| 2026-04-14 05:26 | 30.79737 | 129.84386 | 34908 ft | 520 kts | 46° |
| 2026-04-14 05:27 | 30.84146 | 129.91064 | 34908 ft | 520 kts | 47° |
| 2026-04-14 05:27 | 30.88161 | 129.98124 | 34931 ft | 525 kts | 53° |
| 2026-04-14 05:28 | 30.91950 | 130.05412 | 34904 ft | 526 kts | 53° |
| 2026-04-14 05:28 | 30.95735 | 130.12697 | 34906 ft | 526 kts | 53° |
| 2026-04-14 05:29 | 30.99559 | 130.19957 | 34909 ft | 525 kts | 53° |
| 2026-04-14 05:29 | 31.03396 | 130.27204 | 34909 ft | 525 kts | 53° |
| 2026-04-14 05:30 | 31.07233 | 130.34459 | 34911 ft | 525 kts | 53° |
| 2026-04-14 05:30 | 31.11058 | 130.41715 | 34926 ft | 525 kts | 53° |
| 2026-04-14 05:31 | 31.14891 | 130.49002 | 34898 ft | 528 kts | 53° |
| 2026-04-14 05:31 | 31.18723 | 130.56304 | 34912 ft | 527 kts | 52° |
| 2026-04-14 05:32 | 31.22546 | 130.63601 | 34938 ft | 527 kts | 53° |
| 2026-04-14 05:32 | 31.26389 | 130.70945 | 34914 ft | 531 kts | 53° |
| 2026-04-14 05:33 | 31.30204 | 130.78257 | 34914 ft | 529 kts | 53° |
| 2026-04-14 05:33 | 31.34029 | 130.85601 | 34930 ft | 528 kts | 53° |
| 2026-04-14 05:34 | 31.39763 | 130.96633 | 34920 ft | 529 kts | 53° |
| 2026-04-14 05:34 | 31.43577 | 131.03989 | 34929 ft | 528 kts | 53° |
| 2026-04-14 05:35 | 31.47380 | 131.11339 | 34924 ft | 527 kts | 53° |
| 2026-04-14 05:35 | 31.51173 | 131.18683 | 34947 ft | 528 kts | 53° |
| 2026-04-14 05:36 | 31.54978 | 131.26062 | 34940 ft | 530 kts | 53° |
| 2026-04-14 05:36 | 31.58791 | 131.33474 | 34936 ft | 531 kts | 53° |
| 2026-04-14 05:37 | 31.62598 | 131.40889 | 34932 ft | 531 kts | 53° |
| 2026-04-14 05:37 | 31.66400 | 131.48318 | 34959 ft | 531 kts | 53° |
| 2026-04-14 05:38 | 31.70214 | 131.55784 | 34933 ft | 534 kts | 53° |
| 2026-04-14 05:38 | 31.74027 | 131.63268 | 34946 ft | 534 kts | 53° |
| 2026-04-14 05:39 | 31.77838 | 131.70762 | 34933 ft | 533 kts | 53° |
| 2026-04-14 05:39 | 31.81623 | 131.78222 | 34915 ft | 529 kts | 53° |
| 2026-04-14 05:40 | 31.85377 | 131.85633 | 34943 ft | 526 kts | 53° |
| 2026-04-14 05:40 | 31.89090 | 131.92974 | 34933 ft | 524 kts | 53° |
| 2026-04-14 05:41 | 31.92206 | 131.99145 | 34920 ft | 523 kts | 53° |
| 2026-04-14 05:41 | 31.96559 | 132.07774 | 34952 ft | 532 kts | 53° |
| 2026-04-14 05:42 | 32.00350 | 132.15312 | 34939 ft | 537 kts | 53° |
| 2026-04-14 05:42 | 32.03542 | 132.21679 | 34929 ft | 540 kts | 53° |
| 2026-04-14 05:43 | 32.07332 | 132.29257 | 34936 ft | 532 kts | 53° |
| 2026-04-14 05:43 | 32.11085 | 132.36764 | 34938 ft | 532 kts | 53° |
| 2026-04-14 05:44 | 32.14689 | 132.44419 | 34929 ft | 536 kts | 57° |
| 2026-04-14 05:44 | 32.17978 | 132.52256 | 34967 ft | 537 kts | 58° |
| 2026-04-14 05:45 | 32.21260 | 132.60195 | 34939 ft | 538 kts | 58° |
| 2026-04-14 05:45 | 32.24580 | 132.68118 | 34940 ft | 539 kts | 58° |
| 2026-04-14 05:46 | 32.27925 | 132.76048 | 34954 ft | 539 kts | 57° |
| 2026-04-14 05:46 | 32.31273 | 132.83990 | 34948 ft | 540 kts | 57° |
| 2026-04-14 05:47 | 32.34617 | 132.91952 | 34941 ft | 541 kts | 58° |
| 2026-04-14 05:47 | 32.37954 | 132.99921 | 34979 ft | 541 kts | 58° |
| 2026-04-14 05:48 | 32.41295 | 133.07917 | 34946 ft | 542 kts | 58° |
| 2026-04-14 05:48 | 32.44631 | 133.15920 | 34939 ft | 542 kts | 58° |
| 2026-04-14 05:49 | 32.47939 | 133.23873 | 34944 ft | 543 kts | 58° |
| 2026-04-14 05:49 | 32.51267 | 133.31893 | 34940 ft | 543 kts | 58° |
| 2026-04-14 05:50 | 32.54592 | 133.39922 | 34944 ft | 542 kts | 58° |
| 2026-04-14 05:50 | 32.57909 | 133.47931 | 34969 ft | 541 kts | 57° |
| 2026-04-14 05:51 | 32.61245 | 133.55919 | 34955 ft | 540 kts | 57° |
| 2026-04-14 05:51 | 32.64566 | 133.63912 | 34932 ft | 540 kts | 58° |
| 2026-04-14 05:52 | 32.67843 | 133.71929 | 34965 ft | 540 kts | 58° |
| 2026-04-14 05:52 | 32.71106 | 133.79953 | 34959 ft | 540 kts | 58° |
| 2026-04-14 05:53 | 32.74368 | 133.87976 | 34951 ft | 539 kts | 58° |
| 2026-04-14 05:53 | 32.77627 | 133.96002 | 34967 ft | 540 kts | 58° |
| 2026-04-14 05:54 | 32.80887 | 134.04049 | 34955 ft | 540 kts | 58° |
| 2026-04-14 05:54 | 32.83689 | 134.12386 | 34978 ft | 547 kts | 69° |
| 2026-04-14 05:55 | 32.85788 | 134.21111 | 34970 ft | 550 kts | 70° |
| 2026-04-14 05:55 | 32.87838 | 134.29813 | 34972 ft | 550 kts | 70° |
| 2026-04-14 05:56 | 32.89979 | 134.38546 | 34968 ft | 550 kts | 69° |
| 2026-04-14 05:56 | 32.92150 | 134.47272 | 34985 ft | 550 kts | 69° |
| 2026-04-14 05:57 | 32.94315 | 134.56014 | 34972 ft | 551 kts | 69° |
| 2026-04-14 05:57 | 32.96467 | 134.64767 | 34957 ft | 551 kts | 69° |
| 2026-04-14 05:58 | 32.98611 | 134.73513 | 35005 ft | 550 kts | 69° |
| 2026-04-14 05:58 | 33.00492 | 134.82368 | 34969 ft | 555 kts | 79° |
| 2026-04-14 05:59 | 33.01462 | 134.91494 | 34979 ft | 556 kts | 81° |
| 2026-04-14 05:59 | 33.02361 | 135.00639 | 34976 ft | 555 kts | 80° |
| 2026-04-14 06:00 | 33.03345 | 135.09765 | 34980 ft | 555 kts | 79° |
| 2026-04-14 06:00 | 33.04341 | 135.18881 | 34980 ft | 555 kts | 80° |
| 2026-04-14 06:01 | 33.05311 | 135.28000 | 34979 ft | 555 kts | 80° |
| 2026-04-14 06:01 | 33.06269 | 135.37124 | 34976 ft | 555 kts | 80° |
| 2026-04-14 06:02 | 33.07224 | 135.46244 | 34994 ft | 554 kts | 80° |
| 2026-04-14 06:02 | 33.08173 | 135.55365 | 34981 ft | 554 kts | 80° |
| 2026-04-14 06:03 | 33.09115 | 135.64476 | 34991 ft | 554 kts | 80° |
| 2026-04-14 06:04 | 33.10509 | 135.78149 | 34994 ft | 554 kts | 80° |
| 2026-04-14 06:04 | 33.11423 | 135.87203 | 34986 ft | 554 kts | 80° |
| 2026-04-14 06:05 | 33.12338 | 135.96321 | 34991 ft | 553 kts | 80° |
| 2026-04-14 06:05 | 33.13247 | 136.05442 | 34970 ft | 554 kts | 80° |
| 2026-04-14 06:06 | 33.14148 | 136.14560 | 34985 ft | 553 kts | 80° |
| 2026-04-14 06:06 | 33.15042 | 136.23679 | 35002 ft | 553 kts | 80° |
| 2026-04-14 06:07 | 33.15930 | 136.32802 | 34990 ft | 553 kts | 80° |
| 2026-04-14 06:07 | 33.16811 | 136.41926 | 34997 ft | 554 kts | 81° |
| 2026-04-14 06:08 | 33.17688 | 136.51057 | 34988 ft | 554 kts | 81° |
| 2026-04-14 06:08 | 33.18561 | 136.60187 | 35006 ft | 554 kts | 80° |
| 2026-04-14 06:09 | 33.19432 | 136.69316 | 34994 ft | 553 kts | 80° |
| 2026-04-14 06:09 | 33.20297 | 136.78446 | 35015 ft | 553 kts | 80° |
| 2026-04-14 06:10 | 33.21153 | 136.87575 | 34996 ft | 553 kts | 81° |
| 2026-04-14 06:10 | 33.22002 | 136.96704 | 34994 ft | 553 kts | 81° |
| 2026-04-14 06:11 | 33.22846 | 137.05833 | 34998 ft | 553 kts | 81° |
| 2026-04-14 06:11 | 33.24298 | 137.14776 | 35004 ft | 545 kts | 68° |
| 2026-04-14 06:12 | 33.26528 | 137.23415 | 34998 ft | 544 kts | 66° |
| 2026-04-14 06:12 | 33.28775 | 137.32040 | 34979 ft | 544 kts | 67° |
| 2026-04-14 06:13 | 33.30937 | 137.40635 | 35006 ft | 544 kts | 68° |
| 2026-04-14 06:13 | 33.33079 | 137.49310 | 34995 ft | 544 kts | 68° |
| 2026-04-14 06:14 | 33.35216 | 137.57990 | 34995 ft | 544 kts | 68° |
| 2026-04-14 06:14 | 33.37352 | 137.66670 | 35003 ft | 544 kts | 68° |
| 2026-04-14 06:15 | 33.39485 | 137.75361 | 34996 ft | 544 kts | 68° |
| 2026-04-14 06:15 | 33.41610 | 137.84052 | 35007 ft | 544 kts | 68° |
| 2026-04-14 06:16 | 33.44022 | 137.92578 | 34995 ft | 535 kts | 57° |
| 2026-04-14 06:16 | 33.45807 | 137.96424 | 35000 ft | 524 kts | 49° |
| 2026-04-14 06:16 | 33.47778 | 138.00080 | 35007 ft | 522 kts | 47° |
| 2026-04-14 06:17 | 33.51720 | 138.07396 | 35012 ft | 524 kts | 49° |
| 2026-04-14 06:17 | 33.55555 | 138.14844 | 35008 ft | 525 kts | 50° |
| 2026-04-14 06:18 | 33.59362 | 138.22316 | 34997 ft | 525 kts | 50° |
| 2026-04-14 06:18 | 33.63167 | 138.29783 | 35008 ft | 525 kts | 50° |
| 2026-04-14 06:19 | 33.66974 | 138.37256 | 35007 ft | 524 kts | 50° |
| 2026-04-14 06:19 | 33.70748 | 138.44678 | 35019 ft | 524 kts | 50° |
| 2026-04-14 06:20 | 33.74540 | 138.52151 | 35011 ft | 524 kts | 50° |
| 2026-04-14 06:20 | 33.78329 | 138.59629 | 35013 ft | 523 kts | 50° |
| 2026-04-14 06:21 | 33.82110 | 138.67107 | 35024 ft | 523 kts | 50° |
| 2026-04-14 06:21 | 33.85884 | 138.74588 | 35016 ft | 523 kts | 50° |
| 2026-04-14 06:22 | 33.89652 | 138.82072 | 35017 ft | 522 kts | 50° |
| 2026-04-14 06:22 | 33.93411 | 138.89554 | 35034 ft | 522 kts | 50° |
| 2026-04-14 06:23 | 33.97165 | 138.97042 | 35018 ft | 522 kts | 50° |
| 2026-04-14 06:23 | 34.00913 | 139.04534 | 35052 ft | 522 kts | 50° |
| 2026-04-14 06:24 | 34.04657 | 139.12034 | 35036 ft | 522 kts | 50° |
| 2026-04-14 06:24 | 34.08393 | 139.19534 | 35022 ft | 521 kts | 50° |
| 2026-04-14 06:25 | 34.12122 | 139.27034 | 35026 ft | 521 kts | 50° |
| 2026-04-14 06:25 | 34.15841 | 139.34525 | 35025 ft | 520 kts | 50° |
| 2026-04-14 06:26 | 34.19553 | 139.42013 | 35029 ft | 519 kts | 50° |
| 2026-04-14 06:26 | 34.23257 | 139.49501 | 35031 ft | 519 kts | 50° |
| 2026-04-14 06:27 | 34.26951 | 139.56988 | 35045 ft | 518 kts | 51° |
| 2026-04-14 06:27 | 34.30640 | 139.64478 | 35034 ft | 518 kts | 51° |
| 2026-04-14 06:28 | 34.34320 | 139.71968 | 35039 ft | 518 kts | 51° |
| 2026-04-14 06:28 | 34.37991 | 139.79455 | 35053 ft | 517 kts | 51° |
| 2026-04-14 06:29 | 34.41658 | 139.86949 | 35040 ft | 517 kts | 51° |
| 2026-04-14 06:29 | 34.45308 | 139.94425 | 35036 ft | 516 kts | 51° |
| 2026-04-14 06:30 | 34.48956 | 140.01912 | 35051 ft | 515 kts | 51° |
| 2026-04-14 06:30 | 34.52588 | 140.09384 | 35035 ft | 514 kts | 51° |
| 2026-04-14 06:31 | 34.56183 | 140.16794 | 35036 ft | 512 kts | 51° |
| 2026-04-14 06:31 | 34.59787 | 140.24239 | 35047 ft | 511 kts | 51° |
| 2026-04-14 06:32 | 34.63377 | 140.31670 | 35037 ft | 510 kts | 51° |
| 2026-04-14 06:32 | 34.66955 | 140.39092 | 35041 ft | 508 kts | 52° |
| 2026-04-14 06:33 | 34.69943 | 140.45302 | 35058 ft | 508 kts | 52° |
| 2026-04-14 06:33 | 34.73406 | 140.52720 | 35044 ft | 508 kts | 53° |
| 2026-04-14 06:34 | 34.78543 | 140.63968 | 35050 ft | 506 kts | 53° |
| 2026-04-14 06:34 | 34.81965 | 140.71454 | 35057 ft | 506 kts | 53° |
| 2026-04-14 06:35 | 34.85385 | 140.78926 | 35053 ft | 505 kts | 53° |
| 2026-04-14 06:35 | 34.88799 | 140.86397 | 35051 ft | 504 kts | 53° |
| 2026-04-14 06:36 | 34.92205 | 140.93866 | 35059 ft | 504 kts | 54° |
| 2026-04-14 06:36 | 34.95602 | 141.01333 | 35050 ft | 504 kts | 54° |
| 2026-04-14 06:37 | 34.98991 | 141.08802 | 35057 ft | 503 kts | 54° |
| 2026-04-14 06:37 | 35.02374 | 141.16273 | 35074 ft | 503 kts | 54° |
| 2026-04-14 06:38 | 35.05752 | 141.23749 | 35057 ft | 503 kts | 54° |
| 2026-04-14 06:38 | 35.09125 | 141.31228 | 35074 ft | 503 kts | 54° |
| 2026-04-14 06:39 | 35.12498 | 141.38724 | 35076 ft | 504 kts | 55° |
| 2026-04-14 06:39 | 35.15868 | 141.46232 | 35070 ft | 504 kts | 55° |
| 2026-04-14 06:40 | 35.19233 | 141.53744 | 35066 ft | 504 kts | 55° |
| 2026-04-14 06:40 | 35.22593 | 141.61263 | 35065 ft | 504 kts | 55° |
| 2026-04-14 06:41 | 35.25949 | 141.68789 | 35068 ft | 504 kts | 55° |
| 2026-04-14 06:41 | 35.29299 | 141.76319 | 35069 ft | 504 kts | 55° |
| 2026-04-14 06:42 | 35.32646 | 141.83858 | 35085 ft | 504 kts | 55° |
| 2026-04-14 06:42 | 35.35990 | 141.91407 | 35077 ft | 504 kts | 55° |
| 2026-04-14 06:43 | 35.39331 | 141.98966 | 35073 ft | 504 kts | 55° |
| 2026-04-14 06:43 | 35.42645 | 142.06480 | 35081 ft | 504 kts | 55° |
| 2026-04-14 06:44 | 35.45998 | 142.14102 | 35081 ft | 505 kts | 56° |
| 2026-04-14 06:44 | 35.49304 | 142.21632 | 35080 ft | 505 kts | 56° |
| 2026-04-14 06:45 | 35.52626 | 142.29216 | 35095 ft | 505 kts | 56° |
| 2026-04-14 06:45 | 35.55947 | 142.36815 | 35078 ft | 505 kts | 56° |
| 2026-04-14 06:46 | 35.60919 | 142.48222 | 35082 ft | 505 kts | 56° |
| 2026-04-14 06:47 | 35.64226 | 142.55832 | 35091 ft | 505 kts | 56° |
| 2026-04-14 06:47 | 35.67529 | 142.63450 | 35084 ft | 505 kts | 56° |
| 2026-04-14 06:48 | 35.70827 | 142.71076 | 35083 ft | 505 kts | 56° |
| 2026-04-14 06:48 | 35.74116 | 142.78697 | 35099 ft | 504 kts | 56° |
| 2026-04-14 06:49 | 35.77405 | 142.86336 | 35089 ft | 505 kts | 56° |
| 2026-04-14 06:49 | 35.80687 | 142.93977 | 35086 ft | 505 kts | 56° |
| 2026-04-14 06:50 | 35.83963 | 143.01621 | 35099 ft | 504 kts | 56° |
| 2026-04-14 06:50 | 35.87235 | 143.09273 | 35087 ft | 505 kts | 56° |
| 2026-04-14 06:51 | 35.90505 | 143.16934 | 35091 ft | 505 kts | 56° |
| 2026-04-14 06:51 | 35.93205 | 143.24977 | 35090 ft | 514 kts | 72° |
| 2026-04-14 06:52 | 35.94256 | 143.33738 | 35099 ft | 518 kts | 82° |
| 2026-04-14 06:52 | 35.95029 | 143.42573 | 35088 ft | 518 kts | 81° |
| 2026-04-14 06:53 | 35.95911 | 143.51392 | 35106 ft | 518 kts | 80° |
| 2026-04-14 06:53 | 35.96816 | 143.60218 | 35097 ft | 519 kts | 80° |
| 2026-04-14 06:54 | 35.97708 | 143.69053 | 35094 ft | 519 kts | 81° |
| 2026-04-14 06:54 | 35.98586 | 143.77837 | 35109 ft | 519 kts | 81° |
| 2026-04-14 06:55 | 35.99465 | 143.86694 | 35088 ft | 519 kts | 81° |
| 2026-04-14 06:55 | 36.00338 | 143.95544 | 35098 ft | 519 kts | 81° |
| 2026-04-14 06:56 | 36.01321 | 144.04372 | 35083 ft | 517 kts | 72° |
| 2026-04-14 06:56 | 36.02465 | 144.08530 | 35108 ft | 508 kts | 59° |
| 2026-04-14 06:56 | 36.04123 | 144.12342 | 35094 ft | 500 kts | 49° |
| 2026-04-14 06:56 | 36.06222 | 144.15693 | 35096 ft | 487 kts | 38° |
| 2026-04-14 06:57 | 36.08557 | 144.18711 | 35115 ft | 486 kts | 37° |
| 2026-04-14 06:57 | 36.13273 | 144.24697 | 35116 ft | 486 kts | 37° |
| 2026-04-14 06:58 | 36.17974 | 144.30737 | 35109 ft | 488 kts | 38° |
| 2026-04-14 06:58 | 36.22653 | 144.36840 | 35106 ft | 489 kts | 38° |
| 2026-04-14 06:59 | 36.27322 | 144.42973 | 35098 ft | 489 kts | 38° |
| 2026-04-14 06:59 | 36.31987 | 144.49112 | 35103 ft | 489 kts | 38° |
| 2026-04-14 07:00 | 36.36648 | 144.55251 | 35109 ft | 489 kts | 38° |
| 2026-04-14 07:00 | 36.41305 | 144.61396 | 35102 ft | 488 kts | 38° |
| 2026-04-14 07:01 | 36.45954 | 144.67540 | 35100 ft | 488 kts | 38° |
| 2026-04-14 07:01 | 36.50593 | 144.73683 | 35103 ft | 487 kts | 38° |
| 2026-04-14 07:02 | 36.55223 | 144.79826 | 35113 ft | 487 kts | 38° |
| 2026-04-14 07:02 | 36.59844 | 144.85969 | 35114 ft | 485 kts | 38° |
| 2026-04-14 07:03 | 36.64449 | 144.92102 | 35109 ft | 484 kts | 38° |
| 2026-04-14 07:03 | 36.69037 | 144.98224 | 35115 ft | 483 kts | 38° |
| 2026-04-14 07:04 | 36.73611 | 145.04338 | 35115 ft | 482 kts | 38° |
| 2026-04-14 07:04 | 36.78147 | 145.10412 | 35112 ft | 481 kts | 38° |
| 2026-04-14 07:05 | 36.82700 | 145.16520 | 35116 ft | 480 kts | 38° |
| 2026-04-14 07:05 | 36.87243 | 145.22626 | 35113 ft | 480 kts | 38° |
| 2026-04-14 07:06 | 36.91778 | 145.28734 | 35147 ft | 480 kts | 38° |
| 2026-04-14 07:06 | 36.96313 | 145.34852 | 35134 ft | 480 kts | 38° |
| 2026-04-14 07:07 | 37.00846 | 145.40981 | 35129 ft | 480 kts | 39° |
| 2026-04-14 07:07 | 37.05374 | 145.47114 | 35127 ft | 480 kts | 39° |
| 2026-04-14 07:08 | 37.09898 | 145.53254 | 35148 ft | 480 kts | 39° |
| 2026-04-14 07:08 | 37.14424 | 145.59408 | 35137 ft | 480 kts | 39° |
| 2026-04-14 07:09 | 37.18946 | 145.65578 | 35130 ft | 482 kts | 40° |
| 2026-04-14 07:09 | 37.22865 | 145.72534 | 35140 ft | 492 kts | 51° |
| 2026-04-14 07:10 | 37.26448 | 145.79871 | 35155 ft | 493 kts | 51° |
| 2026-04-14 07:10 | 37.30032 | 145.87228 | 35138 ft | 494 kts | 51° |
| 2026-04-14 07:11 | 37.33653 | 145.94568 | 35146 ft | 494 kts | 51° |
| 2026-04-14 07:11 | 37.37292 | 146.01901 | 35138 ft | 494 kts | 51° |
| 2026-04-14 07:12 | 37.40931 | 146.09240 | 35151 ft | 495 kts | 51° |
| 2026-04-14 07:12 | 37.44568 | 146.16596 | 35143 ft | 495 kts | 51° |
| 2026-04-14 07:13 | 37.48202 | 146.23965 | 35148 ft | 495 kts | 51° |
| 2026-04-14 07:13 | 37.51830 | 146.31341 | 35155 ft | 495 kts | 51° |
| 2026-04-14 07:14 | 37.55456 | 146.38730 | 35149 ft | 496 kts | 51° |
| 2026-04-14 07:14 | 37.59078 | 146.46127 | 35149 ft | 496 kts | 51° |
| 2026-04-14 07:15 | 37.62697 | 146.53534 | 35146 ft | 496 kts | 51° |
| 2026-04-14 07:15 | 37.66310 | 146.60944 | 35146 ft | 496 kts | 51° |
| 2026-04-14 07:16 | 37.69915 | 146.68357 | 35144 ft | 495 kts | 51° |
| 2026-04-14 07:16 | 37.73516 | 146.75776 | 35146 ft | 495 kts | 51° |
| 2026-04-14 07:17 | 37.77112 | 146.83203 | 35144 ft | 495 kts | 51° |
| 2026-04-14 07:17 | 37.80676 | 146.90579 | 35154 ft | 495 kts | 51° |
| 2026-04-14 07:18 | 37.84263 | 146.98021 | 35152 ft | 495 kts | 51° |
| 2026-04-14 07:18 | 37.87845 | 147.05468 | 35157 ft | 496 kts | 51° |
| 2026-04-14 07:19 | 37.91425 | 147.12929 | 35167 ft | 496 kts | 51° |
| 2026-04-14 07:19 | 37.95000 | 147.20397 | 35152 ft | 496 kts | 51° |
| 2026-04-14 07:20 | 37.98569 | 147.27870 | 35151 ft | 496 kts | 51° |
| 2026-04-14 07:20 | 38.01532 | 147.34086 | 35155 ft | 495 kts | 51° |
| 2026-04-14 07:21 | 38.05090 | 147.41568 | 35163 ft | 495 kts | 51° |
| 2026-04-14 07:21 | 38.08644 | 147.49057 | 35155 ft | 495 kts | 51° |
| 2026-04-14 07:22 | 38.12196 | 147.56559 | 35155 ft | 495 kts | 51° |
| 2026-04-14 07:22 | 38.15739 | 147.64062 | 35155 ft | 495 kts | 51° |
| 2026-04-14 07:23 | 38.19279 | 147.71573 | 35164 ft | 496 kts | 51° |
| 2026-04-14 07:23 | 38.22818 | 147.79100 | 35158 ft | 496 kts | 51° |
| 2026-04-14 07:24 | 38.26351 | 147.86632 | 35150 ft | 496 kts | 51° |
| 2026-04-14 07:24 | 38.29880 | 147.94173 | 35177 ft | 496 kts | 51° |
| 2026-04-14 07:25 | 38.33407 | 148.01727 | 35156 ft | 496 kts | 51° |
| 2026-04-14 07:25 | 38.36931 | 148.09292 | 35154 ft | 496 kts | 51° |
| 2026-04-14 07:26 | 38.40447 | 148.16861 | 35160 ft | 496 kts | 51° |
| 2026-04-14 07:26 | 38.43963 | 148.24445 | 35182 ft | 497 kts | 51° |
| 2026-04-14 07:27 | 38.47482 | 148.32051 | 35166 ft | 498 kts | 51° |
| 2026-04-14 07:27 | 38.51000 | 148.39677 | 35158 ft | 498 kts | 51° |
| 2026-04-14 07:28 | 38.54511 | 148.47307 | 35160 ft | 498 kts | 51° |
| 2026-04-14 07:28 | 38.58019 | 148.54946 | 35160 ft | 499 kts | 51° |
| 2026-04-14 07:29 | 38.61523 | 148.62595 | 35160 ft | 499 kts | 51° |
| 2026-04-14 07:29 | 38.65024 | 148.70258 | 35156 ft | 499 kts | 51° |
| 2026-04-14 07:30 | 38.68518 | 148.77922 | 35174 ft | 499 kts | 51° |
| 2026-04-14 07:30 | 38.72010 | 148.85599 | 35162 ft | 499 kts | 51° |
| 2026-04-14 07:31 | 38.75495 | 148.93281 | 35162 ft | 499 kts | 51° |
| 2026-04-14 07:31 | 38.78976 | 149.00972 | 35161 ft | 499 kts | 51° |
| 2026-04-14 07:32 | 38.82450 | 149.08667 | 35166 ft | 499 kts | 51° |
| 2026-04-14 07:32 | 38.85920 | 149.16372 | 35162 ft | 499 kts | 51° |
| 2026-04-14 07:33 | 38.89386 | 149.24085 | 35160 ft | 499 kts | 51° |
| 2026-04-14 07:33 | 38.92844 | 149.31800 | 35160 ft | 498 kts | 51° |
| 2026-04-14 07:34 | 38.99741 | 149.47245 | 35161 ft | 498 kts | 51° |
| 2026-04-14 07:35 | 39.03183 | 149.54981 | 35158 ft | 498 kts | 52° |
| 2026-04-14 07:35 | 39.06617 | 149.62719 | 35171 ft | 498 kts | 52° |
| 2026-04-14 07:36 | 39.10046 | 149.70465 | 35161 ft | 498 kts | 52° |
| 2026-04-14 07:36 | 39.13474 | 149.78225 | 35154 ft | 498 kts | 52° |
| 2026-04-14 07:37 | 39.16745 | 149.86136 | 35153 ft | 504 kts | 58° |
| 2026-04-14 07:37 | 39.19529 | 149.94470 | 35157 ft | 508 kts | 60° |
| 2026-04-14 07:38 | 39.22214 | 150.02882 | 35159 ft | 507 kts | 60° |
| 2026-04-14 07:38 | 39.24939 | 150.11284 | 35154 ft | 507 kts | 59° |
| 2026-04-14 07:39 | 39.27694 | 150.19658 | 35170 ft | 507 kts | 59° |
| 2026-04-14 07:39 | 39.30459 | 150.28035 | 35156 ft | 507 kts | 59° |
| 2026-04-14 07:40 | 39.33218 | 150.36422 | 35154 ft | 508 kts | 59° |
| 2026-04-14 07:40 | 39.35969 | 150.44823 | 35152 ft | 508 kts | 60° |
| 2026-04-14 07:41 | 39.38713 | 150.53228 | 35160 ft | 508 kts | 60° |
| 2026-04-14 07:41 | 39.41434 | 150.61590 | 35148 ft | 508 kts | 60° |
| 2026-04-14 07:42 | 39.44164 | 150.70007 | 35149 ft | 507 kts | 60° |
| 2026-04-14 07:42 | 39.46887 | 150.78426 | 35165 ft | 507 kts | 61° |
| 2026-04-14 07:43 | 39.49606 | 150.86853 | 35151 ft | 507 kts | 61° |
| 2026-04-14 07:43 | 39.52313 | 150.95273 | 35148 ft | 507 kts | 61° |
| 2026-04-14 07:44 | 39.55013 | 151.03697 | 35146 ft | 506 kts | 61° |
| 2026-04-14 07:44 | 39.57705 | 151.12118 | 35143 ft | 505 kts | 62° |
| 2026-04-14 07:45 | 39.60387 | 151.20535 | 35141 ft | 505 kts | 62° |
| 2026-04-14 07:45 | 39.63059 | 151.28950 | 35140 ft | 504 kts | 62° |
| 2026-04-14 07:46 | 39.65723 | 151.37358 | 35154 ft | 504 kts | 62° |
| 2026-04-14 07:46 | 39.68377 | 151.45764 | 35143 ft | 503 kts | 62° |
| 2026-04-14 07:47 | 39.71023 | 151.54170 | 35143 ft | 503 kts | 62° |
| 2026-04-14 07:47 | 39.73663 | 151.62582 | 35144 ft | 502 kts | 62° |
| 2026-04-14 07:48 | 39.76293 | 151.70989 | 35148 ft | 502 kts | 63° |
| 2026-04-14 07:48 | 39.78918 | 151.79405 | 35140 ft | 502 kts | 63° |
| 2026-04-14 07:49 | 39.81536 | 151.87826 | 35142 ft | 502 kts | 63° |
| 2026-04-14 07:49 | 39.84147 | 151.96246 | 35154 ft | 502 kts | 63° |
| 2026-04-14 07:50 | 39.86752 | 152.04678 | 35147 ft | 502 kts | 63° |
| 2026-04-14 07:50 | 39.89352 | 152.13117 | 35143 ft | 502 kts | 63° |
| 2026-04-14 07:51 | 39.91945 | 152.21561 | 35143 ft | 502 kts | 63° |
| 2026-04-14 07:51 | 39.94531 | 152.30009 | 35142 ft | 502 kts | 63° |
| 2026-04-14 07:52 | 39.97112 | 152.38465 | 35144 ft | 502 kts | 63° |
| 2026-04-14 07:52 | 39.99687 | 152.46930 | 35140 ft | 502 kts | 63° |
| 2026-04-14 07:53 | 40.02258 | 152.55407 | 35151 ft | 502 kts | 64° |
| 2026-04-14 07:53 | 40.04822 | 152.63889 | 35144 ft | 503 kts | 64° |
| 2026-04-14 07:54 | 40.07382 | 152.72382 | 35144 ft | 503 kts | 64° |
| 2026-04-14 07:54 | 40.09934 | 152.80877 | 35183 ft | 503 kts | 64° |
| 2026-04-14 07:55 | 40.12487 | 152.89401 | 35137 ft | 504 kts | 64° |
| 2026-04-14 07:55 | 40.15033 | 152.97932 | 35136 ft | 504 kts | 65° |
| 2026-04-14 07:56 | 40.17576 | 153.06480 | 35146 ft | 504 kts | 65° |
| 2026-04-14 07:56 | 40.20111 | 153.15030 | 35152 ft | 504 kts | 65° |
| 2026-04-14 07:57 | 40.22641 | 153.23588 | 35144 ft | 505 kts | 65° |
| 2026-04-14 07:57 | 40.25167 | 153.32161 | 35140 ft | 505 kts | 65° |
| 2026-04-14 07:58 | 40.27668 | 153.40678 | 35137 ft | 505 kts | 65° |
| 2026-04-14 07:58 | 40.30196 | 153.49313 | 35148 ft | 505 kts | 65° |
| 2026-04-14 07:59 | 40.32689 | 153.57855 | 35147 ft | 505 kts | 65° |
| 2026-04-14 07:59 | 40.35192 | 153.66461 | 35144 ft | 505 kts | 65° |
| 2026-04-14 08:00 | 40.37688 | 153.75073 | 35157 ft | 505 kts | 66° |
| 2026-04-14 08:00 | 40.40180 | 153.83697 | 35145 ft | 506 kts | 66° |
| 2026-04-14 08:01 | 40.42668 | 153.92338 | 35149 ft | 506 kts | 66° |
| 2026-04-14 08:01 | 40.45151 | 154.00988 | 35146 ft | 507 kts | 66° |
| 2026-04-14 08:02 | 40.47628 | 154.09648 | 35150 ft | 507 kts | 66° |
| 2026-04-14 08:02 | 40.50104 | 154.18331 | 35145 ft | 508 kts | 66° |
| 2026-04-14 08:03 | 40.52574 | 154.27024 | 35145 ft | 508 kts | 66° |
| 2026-04-14 08:03 | 40.55038 | 154.35729 | 35144 ft | 508 kts | 66° |
| 2026-04-14 08:04 | 40.57084 | 154.42974 | 35145 ft | 509 kts | 67° |
| 2026-04-14 08:04 | 40.59542 | 154.51708 | 35145 ft | 509 kts | 67° |
| 2026-04-14 08:05 | 40.61994 | 154.60451 | 35145 ft | 509 kts | 67° |
| 2026-04-14 08:05 | 40.64440 | 154.69205 | 35157 ft | 510 kts | 67° |
| 2026-04-14 08:06 | 40.66882 | 154.77971 | 35144 ft | 510 kts | 67° |
| 2026-04-14 08:06 | 40.69319 | 154.86752 | 35149 ft | 510 kts | 68° |
| 2026-04-14 08:07 | 40.71752 | 154.95545 | 35147 ft | 511 kts | 68° |
| 2026-04-14 08:07 | 40.74179 | 155.04349 | 35147 ft | 511 kts | 68° |
| 2026-04-14 08:08 | 40.76601 | 155.13169 | 35148 ft | 511 kts | 68° |
| 2026-04-14 08:08 | 40.79017 | 155.21996 | 35147 ft | 512 kts | 68° |
| 2026-04-14 08:09 | 40.81429 | 155.30838 | 35145 ft | 512 kts | 68° |
| 2026-04-14 08:09 | 40.83834 | 155.39684 | 35148 ft | 512 kts | 68° |
| 2026-04-14 08:10 | 40.86232 | 155.48541 | 35146 ft | 512 kts | 68° |
| 2026-04-14 08:10 | 40.88625 | 155.57407 | 35148 ft | 512 kts | 68° |
| 2026-04-14 08:11 | 40.91010 | 155.66274 | 35150 ft | 512 kts | 68° |
| 2026-04-14 08:11 | 40.93390 | 155.75157 | 35148 ft | 512 kts | 68° |
| 2026-04-14 08:12 | 40.95763 | 155.84047 | 35147 ft | 513 kts | 69° |
| 2026-04-14 08:12 | 40.98131 | 155.92946 | 35148 ft | 513 kts | 69° |
| 2026-04-14 08:13 | 41.00497 | 156.01848 | 35148 ft | 513 kts | 68° |
| 2026-04-14 08:13 | 41.02963 | 156.10698 | 35151 ft | 512 kts | 67° |
| 2026-04-14 08:14 | 41.05474 | 156.19535 | 35150 ft | 513 kts | 67° |
| 2026-04-14 08:14 | 41.07954 | 156.28328 | 35151 ft | 513 kts | 68° |
| 2026-04-14 08:15 | 41.10430 | 156.37195 | 35150 ft | 513 kts | 68° |
| 2026-04-14 08:15 | 41.12897 | 156.46082 | 35151 ft | 513 kts | 68° |
| 2026-04-14 08:16 | 41.15358 | 156.54980 | 35151 ft | 514 kts | 68° |
| 2026-04-14 08:16 | 41.17830 | 156.63947 | 35150 ft | 514 kts | 68° |
| 2026-04-14 08:17 | 41.20265 | 156.72811 | 35152 ft | 515 kts | 68° |
| 2026-04-14 08:17 | 41.22714 | 156.81755 | 35150 ft | 515 kts | 68° |
| 2026-04-14 08:18 | 41.25156 | 156.90706 | 35177 ft | 516 kts | 68° |
| 2026-04-14 08:18 | 41.27599 | 156.99692 | 35162 ft | 517 kts | 68° |
| 2026-04-14 08:19 | 41.30035 | 157.08686 | 35151 ft | 517 kts | 68° |
| 2026-04-14 08:19 | 41.32467 | 157.17698 | 35152 ft | 518 kts | 68° |
| 2026-04-14 08:20 | 41.34894 | 157.26722 | 35159 ft | 518 kts | 69° |
| 2026-04-14 08:20 | 41.37316 | 157.35763 | 35150 ft | 519 kts | 69° |
| 2026-04-14 08:21 | 41.39731 | 157.44811 | 35148 ft | 519 kts | 69° |
| 2026-04-14 08:21 | 41.42140 | 157.53868 | 35151 ft | 519 kts | 69° |
| 2026-04-14 08:22 | 41.44543 | 157.62939 | 35147 ft | 519 kts | 69° |
| 2026-04-14 08:22 | 41.46942 | 157.72026 | 35147 ft | 519 kts | 69° |
| 2026-04-14 08:23 | 41.49333 | 157.81116 | 35147 ft | 520 kts | 69° |
| 2026-04-14 08:23 | 41.51717 | 157.90214 | 35141 ft | 520 kts | 69° |
| 2026-04-14 08:24 | 41.54093 | 157.99319 | 35145 ft | 520 kts | 69° |
| 2026-04-14 08:24 | 41.56464 | 158.08435 | 35149 ft | 520 kts | 69° |
| 2026-04-14 08:25 | 41.58828 | 158.17560 | 35146 ft | 520 kts | 69° |
| 2026-04-14 08:25 | 41.61186 | 158.26696 | 35148 ft | 520 kts | 70° |
| 2026-04-14 08:26 | 41.63539 | 158.35846 | 35149 ft | 520 kts | 70° |
| 2026-04-14 08:26 | 41.65884 | 158.45002 | 35147 ft | 521 kts | 70° |
| 2026-04-14 08:27 | 41.68223 | 158.54170 | 35142 ft | 521 kts | 70° |
| 2026-04-14 08:27 | 41.70554 | 158.63341 | 35146 ft | 521 kts | 70° |
| 2026-04-14 08:28 | 41.72880 | 158.72524 | 35146 ft | 521 kts | 70° |
| 2026-04-14 08:28 | 41.75183 | 158.81655 | 35140 ft | 521 kts | 70° |
| 2026-04-14 08:29 | 41.77494 | 158.90853 | 35142 ft | 521 kts | 70° |
| 2026-04-14 08:29 | 41.79798 | 159.00062 | 35139 ft | 521 kts | 70° |
| 2026-04-14 08:30 | 41.82098 | 159.09285 | 35142 ft | 521 kts | 70° |
| 2026-04-14 08:30 | 41.84387 | 159.18504 | 35142 ft | 521 kts | 70° |
| 2026-04-14 08:31 | 41.86671 | 159.27739 | 35136 ft | 522 kts | 70° |
| 2026-04-14 08:31 | 41.90085 | 159.41612 | 35137 ft | 522 kts | 71° |
| 2026-04-14 08:32 | 41.92354 | 159.50876 | 35139 ft | 522 kts | 71° |
| 2026-04-14 08:32 | 41.94616 | 159.60149 | 35138 ft | 523 kts | 71° |
| 2026-04-14 08:33 | 41.96871 | 159.69430 | 35136 ft | 523 kts | 71° |
| 2026-04-14 08:33 | 41.99119 | 159.78724 | 35139 ft | 523 kts | 71° |
| 2026-04-14 08:34 | 42.01362 | 159.88030 | 35132 ft | 523 kts | 71° |
| 2026-04-14 08:34 | 42.03598 | 159.97349 | 35129 ft | 523 kts | 71° |
| 2026-04-14 08:35 | 42.05826 | 160.06668 | 35127 ft | 523 kts | 71° |
| 2026-04-14 08:35 | 42.08047 | 160.15997 | 35129 ft | 524 kts | 71° |
| 2026-04-14 08:36 | 42.10262 | 160.25343 | 35137 ft | 525 kts | 71° |
| 2026-04-14 08:36 | 42.12475 | 160.34713 | 35132 ft | 525 kts | 71° |
| 2026-04-14 08:37 | 42.14679 | 160.44087 | 35122 ft | 525 kts | 71° |
| 2026-04-14 08:37 | 42.16875 | 160.53469 | 35122 ft | 525 kts | 71° |
| 2026-04-14 08:38 | 42.19063 | 160.62851 | 35120 ft | 525 kts | 72° |
| 2026-04-14 08:38 | 42.21243 | 160.72242 | 35124 ft | 524 kts | 72° |
| 2026-04-14 08:39 | 42.23416 | 160.81638 | 35122 ft | 524 kts | 72° |
| 2026-04-14 08:39 | 42.25580 | 160.91040 | 35119 ft | 524 kts | 72° |
| 2026-04-14 08:40 | 42.27736 | 161.00442 | 35119 ft | 524 kts | 72° |
| 2026-04-14 08:40 | 42.29884 | 161.09854 | 35118 ft | 524 kts | 72° |
| 2026-04-14 08:41 | 42.32010 | 161.19205 | 35115 ft | 524 kts | 72° |
| 2026-04-14 08:41 | 42.34144 | 161.28632 | 35111 ft | 524 kts | 72° |
| 2026-04-14 08:42 | 42.36269 | 161.38062 | 35115 ft | 524 kts | 72° |
| 2026-04-14 08:42 | 42.38386 | 161.47494 | 35114 ft | 524 kts | 72° |
| 2026-04-14 08:43 | 42.40496 | 161.56938 | 35112 ft | 524 kts | 72° |
| 2026-04-14 08:43 | 42.42598 | 161.66389 | 35107 ft | 525 kts | 72° |
| 2026-04-14 08:44 | 42.44694 | 161.75851 | 35110 ft | 525 kts | 73° |
| 2026-04-14 08:44 | 42.46782 | 161.85320 | 35105 ft | 525 kts | 73° |
| 2026-04-14 08:45 | 42.48863 | 161.94798 | 35109 ft | 525 kts | 73° |
| 2026-04-14 08:45 | 42.50946 | 162.04277 | 35106 ft | 525 kts | 72° |
| 2026-04-14 08:46 | 42.53069 | 162.13743 | 35104 ft | 525 kts | 72° |
| 2026-04-14 08:46 | 42.55197 | 162.23210 | 35103 ft | 525 kts | 72° |
| 2026-04-14 08:47 | 42.57311 | 162.32686 | 35101 ft | 525 kts | 72° |
| 2026-04-14 08:47 | 42.59412 | 162.42170 | 35100 ft | 525 kts | 72° |
| 2026-04-14 08:48 | 42.61504 | 162.51666 | 35098 ft | 525 kts | 73° |
| 2026-04-14 08:48 | 42.63591 | 162.61174 | 35106 ft | 525 kts | 73° |
| 2026-04-14 08:49 | 42.65669 | 162.70688 | 35098 ft | 525 kts | 73° |
| 2026-04-14 08:49 | 42.67389 | 162.78592 | 35094 ft | 525 kts | 73° |
| 2026-04-14 08:50 | 42.69453 | 162.88114 | 35085 ft | 525 kts | 73° |
| 2026-04-14 08:50 | 42.71512 | 162.97656 | 35065 ft | 525 kts | 73° |
| 2026-04-14 08:51 | 42.73559 | 163.07188 | 35084 ft | 525 kts | 73° |
| 2026-04-14 08:51 | 42.75597 | 163.16721 | 35084 ft | 525 kts | 73° |
| 2026-04-14 08:52 | 42.77628 | 163.26263 | 35079 ft | 525 kts | 73° |
| 2026-04-14 08:52 | 42.79650 | 163.35809 | 35079 ft | 525 kts | 73° |
| 2026-04-14 08:53 | 42.81665 | 163.45360 | 35078 ft | 525 kts | 73° |
| 2026-04-14 08:53 | 42.83672 | 163.54921 | 35091 ft | 525 kts | 73° |
| 2026-04-14 08:54 | 42.85673 | 163.64498 | 35078 ft | 525 kts | 73° |
| 2026-04-14 08:54 | 42.87664 | 163.74069 | 35069 ft | 524 kts | 73° |
| 2026-04-14 08:55 | 42.89642 | 163.83626 | 35065 ft | 523 kts | 73° |
| 2026-04-14 08:55 | 42.91609 | 163.93170 | 35067 ft | 522 kts | 73° |
| 2026-04-14 08:56 | 42.93550 | 164.02635 | 35067 ft | 521 kts | 74° |
| 2026-04-14 08:56 | 42.95496 | 164.12166 | 35063 ft | 521 kts | 74° |
| 2026-04-14 08:57 | 42.97431 | 164.21689 | 35058 ft | 520 kts | 74° |
| 2026-04-14 08:57 | 42.99357 | 164.31211 | 35061 ft | 520 kts | 74° |
| 2026-04-14 08:58 | 43.01273 | 164.40733 | 35051 ft | 520 kts | 74° |
| 2026-04-14 08:58 | 43.03181 | 164.50258 | 35056 ft | 520 kts | 74° |
| 2026-04-14 08:59 | 43.05082 | 164.59789 | 35054 ft | 520 kts | 74° |
| 2026-04-14 08:59 | 43.06974 | 164.69327 | 35049 ft | 520 kts | 74° |
| 2026-04-14 09:00 | 43.08859 | 164.78874 | 35042 ft | 520 kts | 74° |
| 2026-04-14 09:00 | 43.10735 | 164.88421 | 35051 ft | 520 kts | 75° |
| 2026-04-14 09:01 | 43.12604 | 164.97975 | 35047 ft | 520 kts | 75° |
| 2026-04-14 09:01 | 43.14466 | 165.07541 | 35044 ft | 520 kts | 75° |
| 2026-04-14 09:02 | 43.16320 | 165.17116 | 35042 ft | 520 kts | 75° |
| 2026-04-14 09:02 | 43.18167 | 165.26700 | 35045 ft | 520 kts | 75° |
| 2026-04-14 09:03 | 43.20005 | 165.36288 | 35040 ft | 520 kts | 75° |
| 2026-04-14 09:03 | 43.21838 | 165.45891 | 35035 ft | 521 kts | 75° |
| 2026-04-14 09:04 | 43.23662 | 165.55499 | 35033 ft | 521 kts | 75° |
| 2026-04-14 09:04 | 43.25478 | 165.65114 | 35033 ft | 521 kts | 75° |
| 2026-04-14 09:05 | 43.27287 | 165.74735 | 35034 ft | 521 kts | 75° |
| 2026-04-14 09:05 | 43.29075 | 165.84301 | 35038 ft | 521 kts | 75° |
| 2026-04-14 09:06 | 43.30868 | 165.93935 | 35028 ft | 521 kts | 75° |
| 2026-04-14 09:06 | 43.32651 | 166.03567 | 35030 ft | 520 kts | 75° |
| 2026-04-14 09:07 | 43.34424 | 166.13196 | 35027 ft | 520 kts | 75° |
| 2026-04-14 09:07 | 43.36188 | 166.22821 | 35020 ft | 519 kts | 75° |
| 2026-04-14 09:08 | 43.37942 | 166.32445 | 35041 ft | 519 kts | 75° |
| 2026-04-14 09:08 | 43.39687 | 166.42070 | 35024 ft | 519 kts | 76° |
| 2026-04-14 09:09 | 43.41425 | 166.51702 | 35023 ft | 519 kts | 76° |
| 2026-04-14 09:09 | 43.43154 | 166.61338 | 35034 ft | 519 kts | 76° |
| 2026-04-14 09:10 | 43.44876 | 166.70987 | 35041 ft | 519 kts | 76° |
| 2026-04-14 09:10 | 43.46592 | 166.80648 | 35024 ft | 520 kts | 76° |
| 2026-04-14 09:11 | 43.48299 | 166.90309 | 35021 ft | 519 kts | 76° |
| 2026-04-14 09:11 | 43.50191 | 166.99875 | 35009 ft | 517 kts | 67° |
| 2026-04-14 09:12 | 43.51687 | 167.04348 | 35009 ft | 511 kts | 56° |
| 2026-04-14 09:12 | 43.53481 | 167.08564 | 35030 ft | 510 kts | 54° |
| 2026-04-14 09:12 | 43.57163 | 167.16910 | 35017 ft | 509 kts | 54° |
| 2026-04-14 09:13 | 43.60824 | 167.25275 | 35017 ft | 509 kts | 55° |
| 2026-04-14 09:13 | 43.64433 | 167.33683 | 35019 ft | 509 kts | 56° |
| 2026-04-14 09:14 | 43.68019 | 167.42123 | 35015 ft | 510 kts | 56° |
| 2026-04-14 09:14 | 43.71596 | 167.50574 | 35017 ft | 510 kts | 56° |
| 2026-04-14 09:15 | 43.75148 | 167.58985 | 35044 ft | 510 kts | 56° |
| 2026-04-14 09:15 | 43.78741 | 167.67514 | 35014 ft | 509 kts | 56° |
| 2026-04-14 09:16 | 43.82275 | 167.75926 | 35006 ft | 508 kts | 56° |
| 2026-04-14 09:16 | 43.85817 | 167.84381 | 35003 ft | 507 kts | 56° |
| 2026-04-14 09:17 | 43.89343 | 167.92824 | 35005 ft | 505 kts | 56° |
| 2026-04-14 09:17 | 43.92854 | 168.01253 | 34998 ft | 504 kts | 56° |
| 2026-04-14 09:18 | 43.96356 | 168.09686 | 35005 ft | 504 kts | 56° |
| 2026-04-14 09:18 | 43.99853 | 168.18132 | 35007 ft | 505 kts | 57° |
| 2026-04-14 09:19 | 44.03347 | 168.26595 | 35000 ft | 506 kts | 57° |
| 2026-04-14 09:19 | 44.06840 | 168.35085 | 34988 ft | 506 kts | 57° |
| 2026-04-14 09:20 | 44.10324 | 168.43576 | 34993 ft | 505 kts | 57° |
| 2026-04-14 09:20 | 44.13794 | 168.52059 | 34995 ft | 504 kts | 57° |
| 2026-04-14 09:21 | 44.17254 | 168.60541 | 34996 ft | 503 kts | 57° |
| 2026-04-14 09:21 | 44.20704 | 168.69025 | 34998 ft | 503 kts | 57° |
| 2026-04-14 09:22 | 44.24144 | 168.77509 | 34994 ft | 502 kts | 57° |
| 2026-04-14 09:22 | 44.27577 | 168.86001 | 35015 ft | 503 kts | 58° |
| 2026-04-14 09:23 | 44.31005 | 168.94508 | 34998 ft | 502 kts | 58° |
| 2026-04-14 09:23 | 44.34423 | 169.03014 | 34989 ft | 502 kts | 58° |
| 2026-04-14 09:24 | 44.37832 | 169.11524 | 34992 ft | 501 kts | 58° |
| 2026-04-14 09:24 | 44.41230 | 169.20030 | 34988 ft | 501 kts | 58° |
| 2026-04-14 09:25 | 44.44620 | 169.28545 | 34992 ft | 501 kts | 58° |
| 2026-04-14 09:25 | 44.47982 | 169.37014 | 34992 ft | 501 kts | 58° |
| 2026-04-14 09:26 | 44.51360 | 169.45548 | 34999 ft | 501 kts | 58° |
| 2026-04-14 09:26 | 44.54734 | 169.54099 | 34989 ft | 501 kts | 58° |
| 2026-04-14 09:27 | 44.58100 | 169.62656 | 34984 ft | 501 kts | 58° |
| 2026-04-14 09:27 | 44.61460 | 169.71222 | 34986 ft | 501 kts | 58° |
| 2026-04-14 09:28 | 44.64810 | 169.79791 | 34985 ft | 500 kts | 59° |
| 2026-04-14 09:28 | 44.68150 | 169.88360 | 34984 ft | 500 kts | 59° |
| 2026-04-14 09:29 | 44.71483 | 169.96936 | 34986 ft | 500 kts | 59° |
| 2026-04-14 09:29 | 44.74807 | 170.05517 | 34988 ft | 500 kts | 59° |
| 2026-04-14 09:30 | 44.78123 | 170.14104 | 34978 ft | 499 kts | 59° |
| 2026-04-14 09:30 | 44.81433 | 170.22701 | 34985 ft | 499 kts | 59° |
| 2026-04-14 09:31 | 44.84738 | 170.31312 | 34985 ft | 500 kts | 59° |
| 2026-04-14 09:31 | 44.88041 | 170.39942 | 34983 ft | 500 kts | 59° |
| 2026-04-14 09:32 | 44.91336 | 170.48583 | 34975 ft | 501 kts | 60° |
| 2026-04-14 09:33 | 44.96251 | 170.61519 | 34981 ft | 501 kts | 60° |
| 2026-04-14 09:33 | 44.99557 | 170.70253 | 34981 ft | 501 kts | 60° |
| 2026-04-14 09:34 | 45.02837 | 170.78948 | 34983 ft | 502 kts | 60° |
| 2026-04-14 09:34 | 45.06089 | 170.87595 | 34986 ft | 501 kts | 60° |
| 2026-04-14 09:35 | 45.09352 | 170.96300 | 34983 ft | 501 kts | 60° |
| 2026-04-14 09:35 | 45.12606 | 171.05008 | 34978 ft | 500 kts | 60° |
| 2026-04-14 09:36 | 45.15848 | 171.13710 | 34975 ft | 499 kts | 61° |
| 2026-04-14 09:36 | 45.19082 | 171.22420 | 34978 ft | 499 kts | 61° |
| 2026-04-14 09:37 | 45.22308 | 171.31132 | 34979 ft | 499 kts | 61° |
| 2026-04-14 09:37 | 45.25530 | 171.39864 | 35016 ft | 499 kts | 61° |
| 2026-04-14 09:38 | 45.28748 | 171.48615 | 34968 ft | 500 kts | 61° |
| 2026-04-14 09:38 | 45.31420 | 171.55901 | 34971 ft | 500 kts | 62° |
| 2026-04-14 09:39 | 45.34624 | 171.64666 | 34977 ft | 500 kts | 62° |
| 2026-04-14 09:39 | 45.37823 | 171.73442 | 34978 ft | 500 kts | 62° |
| 2026-04-14 09:40 | 45.41013 | 171.82223 | 34980 ft | 500 kts | 62° |
| 2026-04-14 09:40 | 45.44195 | 171.91011 | 34971 ft | 499 kts | 62° |
| 2026-04-14 09:41 | 45.47369 | 171.99805 | 34979 ft | 499 kts | 62° |
| 2026-04-14 09:41 | 45.50541 | 172.08620 | 35014 ft | 500 kts | 62° |
| 2026-04-14 09:42 | 45.53710 | 172.17460 | 34983 ft | 501 kts | 62° |
| 2026-04-14 09:42 | 45.56872 | 172.26305 | 34969 ft | 500 kts | 63° |
| 2026-04-14 09:43 | 45.60023 | 172.35151 | 34974 ft | 500 kts | 63° |
| 2026-04-14 09:43 | 45.63165 | 172.44002 | 34981 ft | 500 kts | 63° |
| 2026-04-14 09:44 | 45.66302 | 172.52865 | 34979 ft | 500 kts | 63° |
| 2026-04-14 09:44 | 45.69433 | 172.61742 | 34980 ft | 500 kts | 63° |
| 2026-04-14 09:45 | 45.72557 | 172.70627 | 34979 ft | 500 kts | 63° |
| 2026-04-14 09:45 | 45.75654 | 172.79467 | 35017 ft | 500 kts | 63° |
| 2026-04-14 09:46 | 45.78766 | 172.88378 | 34986 ft | 499 kts | 63° |
| 2026-04-14 09:46 | 45.81861 | 172.97269 | 34982 ft | 497 kts | 64° |
| 2026-04-14 09:47 | 45.84935 | 173.06133 | 34983 ft | 496 kts | 64° |
| 2026-04-14 09:47 | 45.88000 | 173.14997 | 34990 ft | 496 kts | 64° |
| 2026-04-14 09:48 | 45.91058 | 173.23873 | 34991 ft | 496 kts | 64° |
| 2026-04-14 09:48 | 45.94113 | 173.32767 | 34976 ft | 497 kts | 64° |
| 2026-04-14 09:49 | 45.97163 | 173.41680 | 34992 ft | 497 kts | 65° |
| 2026-04-14 09:49 | 46.00213 | 173.50615 | 35006 ft | 499 kts | 65° |
| 2026-04-14 09:50 | 46.03300 | 173.59548 | 34995 ft | 498 kts | 64° |
| 2026-04-14 09:50 | 46.06401 | 173.68457 | 34976 ft | 497 kts | 65° |
| 2026-04-14 09:51 | 46.09486 | 173.77359 | 34995 ft | 497 kts | 65° |
| 2026-04-14 09:51 | 46.12559 | 173.86279 | 35008 ft | 497 kts | 65° |
| 2026-04-14 09:52 | 46.15625 | 173.95215 | 35007 ft | 498 kts | 65° |
| 2026-04-14 09:52 | 46.18691 | 174.04182 | 34995 ft | 499 kts | 65° |
| 2026-04-14 09:53 | 46.21754 | 174.13173 | 35013 ft | 499 kts | 65° |
| 2026-04-14 09:53 | 46.24818 | 174.22194 | 35014 ft | 501 kts | 65° |
| 2026-04-14 09:54 | 46.27858 | 174.31176 | 35010 ft | 501 kts | 65° |
| 2026-04-14 09:54 | 46.30908 | 174.40218 | 34970 ft | 500 kts | 66° |
| 2026-04-14 09:55 | 46.33940 | 174.49236 | 35015 ft | 498 kts | 66° |
| 2026-04-14 09:55 | 46.36959 | 174.58249 | 35014 ft | 497 kts | 66° |
| 2026-04-14 09:56 | 46.39966 | 174.67257 | 35017 ft | 497 kts | 66° |
| 2026-04-14 09:56 | 46.42963 | 174.76269 | 35022 ft | 496 kts | 66° |
| 2026-04-14 09:57 | 46.45954 | 174.85290 | 35050 ft | 497 kts | 67° |
| 2026-04-14 09:57 | 46.48945 | 174.94346 | 35029 ft | 498 kts | 67° |
| 2026-04-14 09:58 | 46.51937 | 175.03433 | 35030 ft | 499 kts | 67° |
| 2026-04-14 09:58 | 46.54927 | 175.12547 | 35021 ft | 500 kts | 68° |
| 2026-04-14 09:59 | 46.57909 | 175.21667 | 35024 ft | 499 kts | 68° |
| 2026-04-14 09:59 | 46.60883 | 175.30796 | 35029 ft | 500 kts | 68° |
| 2026-04-14 10:00 | 46.63850 | 175.39938 | 35034 ft | 500 kts | 68° |
| 2026-04-14 10:00 | 46.66812 | 175.49095 | 35036 ft | 500 kts | 68° |
| 2026-04-14 10:01 | 46.69767 | 175.58266 | 35035 ft | 500 kts | 68° |
| 2026-04-14 10:01 | 46.72713 | 175.67436 | 35035 ft | 499 kts | 68° |
| 2026-04-14 10:02 | 46.75627 | 175.76543 | 35033 ft | 499 kts | 69° |
| 2026-04-14 10:02 | 46.78549 | 175.85707 | 35033 ft | 498 kts | 69° |
| 2026-04-14 10:03 | 46.81459 | 175.94866 | 34994 ft | 497 kts | 69° |
| 2026-04-14 10:03 | 46.84354 | 176.04007 | 35028 ft | 495 kts | 69° |
| 2026-04-14 10:04 | 46.87234 | 176.13140 | 35033 ft | 495 kts | 69° |
| 2026-04-14 10:04 | 46.90105 | 176.22276 | 35037 ft | 494 kts | 70° |
| 2026-04-14 10:05 | 46.92969 | 176.31424 | 35060 ft | 495 kts | 70° |
| 2026-04-14 10:05 | 46.95830 | 176.40593 | 35042 ft | 495 kts | 70° |
| 2026-04-14 10:06 | 46.98685 | 176.49771 | 35033 ft | 495 kts | 70° |
| 2026-04-14 10:06 | 47.01529 | 176.58953 | 35038 ft | 495 kts | 70° |
| 2026-04-14 10:07 | 47.04362 | 176.68130 | 35039 ft | 494 kts | 70° |
| 2026-04-14 10:07 | 47.07186 | 176.77311 | 35016 ft | 493 kts | 71° |
| 2026-04-14 10:08 | 47.09975 | 176.86415 | 35026 ft | 492 kts | 71° |
| 2026-04-14 10:08 | 47.12774 | 176.95585 | 35042 ft | 492 kts | 71° |
| 2026-04-14 10:09 | 47.15568 | 177.04770 | 35035 ft | 493 kts | 71° |
| 2026-04-14 10:09 | 47.18356 | 177.13971 | 34999 ft | 492 kts | 71° |
| 2026-04-14 10:10 | 47.21132 | 177.23164 | 35034 ft | 492 kts | 71° |
| 2026-04-14 10:10 | 47.23901 | 177.32370 | 35042 ft | 492 kts | 71° |
| 2026-04-14 10:11 | 47.26664 | 177.41588 | 35045 ft | 492 kts | 71° |
| 2026-04-14 10:11 | 47.29421 | 177.50822 | 35041 ft | 492 kts | 71° |
| 2026-04-14 10:12 | 47.32166 | 177.60046 | 35039 ft | 491 kts | 72° |
| 2026-04-14 10:12 | 47.34900 | 177.69270 | 35039 ft | 491 kts | 72° |
| 2026-04-14 10:13 | 47.37621 | 177.78486 | 35058 ft | 490 kts | 72° |
| 2026-04-14 10:13 | 47.40336 | 177.87718 | 35046 ft | 490 kts | 72° |
| 2026-04-14 10:14 | 47.43040 | 177.96944 | 35023 ft | 488 kts | 72° |
| 2026-04-14 10:14 | 47.45726 | 178.06142 | 35033 ft | 487 kts | 72° |
| 2026-04-14 10:15 | 47.48401 | 178.15342 | 35045 ft | 487 kts | 72° |
| 2026-04-14 10:15 | 47.51066 | 178.24540 | 35046 ft | 486 kts | 72° |
| 2026-04-14 10:16 | 47.53722 | 178.33741 | 35007 ft | 486 kts | 73° |
| 2026-04-14 10:16 | 47.56367 | 178.42937 | 35041 ft | 485 kts | 73° |
| 2026-04-14 10:17 | 47.59001 | 178.52134 | 35070 ft | 485 kts | 73° |
| 2026-04-14 10:17 | 47.61614 | 178.61291 | 35052 ft | 486 kts | 73° |
| 2026-04-14 10:18 | 47.65549 | 178.75143 | 34990 ft | 486 kts | 73° |
| 2026-04-14 10:18 | 47.68156 | 178.84362 | 35040 ft | 484 kts | 73° |
| 2026-04-14 10:19 | 47.70749 | 178.93570 | 35042 ft | 483 kts | 73° |
| 2026-04-14 10:19 | 47.73332 | 179.02779 | 35049 ft | 482 kts | 73° |
| 2026-04-14 10:20 | 47.75903 | 179.11980 | 35048 ft | 482 kts | 74° |
| 2026-04-14 10:20 | 47.78464 | 179.21181 | 35042 ft | 480 kts | 74° |
| 2026-04-14 10:21 | 47.81011 | 179.30362 | 35061 ft | 480 kts | 74° |
| 2026-04-14 10:21 | 47.83550 | 179.39556 | 35051 ft | 480 kts | 74° |
| 2026-04-14 10:22 | 47.86081 | 179.48755 | 35045 ft | 480 kts | 74° |
| 2026-04-14 10:22 | 47.88603 | 179.57958 | 35007 ft | 480 kts | 74° |
| 2026-04-14 10:23 | 47.91113 | 179.67148 | 35045 ft | 478 kts | 74° |
| 2026-04-14 10:23 | 47.93610 | 179.76333 | 35042 ft | 478 kts | 74° |
| 2026-04-14 10:24 | 47.96097 | 179.85515 | 35059 ft | 477 kts | 74° |
| 2026-04-14 10:24 | 47.98575 | 179.94697 | 35049 ft | 477 kts | 75° |
| 2026-04-14 10:25 | 48.00881 | -179.96056 | 35032 ft | 471 kts | 79° |
| 2026-04-14 10:25 | 48.02715 | -179.86690 | 35053 ft | 469 kts | 81° |
| 2026-04-14 10:26 | 48.04472 | -179.77305 | 35050 ft | 469 kts | 81° |
| 2026-04-14 10:26 | 48.06249 | -179.67936 | 35051 ft | 469 kts | 81° |
| 2026-04-14 10:27 | 48.08044 | -179.58572 | 35052 ft | 468 kts | 81° |
| 2026-04-14 10:27 | 48.09538 | -179.50788 | 35052 ft | 468 kts | 81° |
| 2026-04-14 10:28 | 48.11329 | -179.41415 | 35055 ft | 468 kts | 81° |
| 2026-04-14 10:28 | 48.13111 | -179.32038 | 35055 ft | 468 kts | 81° |
| 2026-04-14 10:29 | 48.14885 | -179.22653 | 35055 ft | 468 kts | 81° |
| 2026-04-14 10:29 | 48.16651 | -179.13264 | 35029 ft | 469 kts | 81° |
| 2026-04-14 10:30 | 48.18407 | -179.03875 | 35051 ft | 468 kts | 81° |
| 2026-04-14 10:30 | 48.20157 | -178.94476 | 35058 ft | 468 kts | 81° |
| 2026-04-14 10:31 | 48.21899 | -178.85074 | 35077 ft | 468 kts | 81° |
| 2026-04-14 10:31 | 48.23634 | -178.75656 | 35061 ft | 469 kts | 81° |
| 2026-04-14 10:32 | 48.25362 | -178.66228 | 35045 ft | 468 kts | 81° |
| 2026-04-14 10:32 | 48.27081 | -178.56806 | 35049 ft | 468 kts | 81° |
| 2026-04-14 10:33 | 48.28792 | -178.47380 | 35060 ft | 468 kts | 81° |
| 2026-04-14 10:33 | 48.30495 | -178.37947 | 35056 ft | 468 kts | 81° |
| 2026-04-14 10:34 | 48.33036 | -178.23779 | 35046 ft | 468 kts | 81° |
| 2026-04-14 10:35 | 48.34718 | -178.14340 | 35050 ft | 468 kts | 81° |
| 2026-04-14 10:35 | 48.36392 | -178.04894 | 35054 ft | 468 kts | 81° |
| 2026-04-14 10:36 | 48.38047 | -177.95504 | 35054 ft | 468 kts | 81° |
| 2026-04-14 10:36 | 48.39707 | -177.86042 | 35051 ft | 468 kts | 81° |
| 2026-04-14 10:37 | 48.41356 | -177.76590 | 35050 ft | 466 kts | 81° |
| 2026-04-14 10:37 | 48.42996 | -177.67141 | 35060 ft | 467 kts | 81° |
| 2026-04-14 10:38 | 48.44627 | -177.57685 | 35060 ft | 466 kts | 81° |
| 2026-04-14 10:38 | 48.46251 | -177.48224 | 35052 ft | 466 kts | 81° |
| 2026-04-14 10:39 | 48.47866 | -177.38764 | 35025 ft | 466 kts | 81° |
| 2026-04-14 10:39 | 48.49471 | -177.29319 | 35048 ft | 465 kts | 81° |
| 2026-04-14 10:40 | 48.51065 | -177.19877 | 35061 ft | 464 kts | 81° |
| 2026-04-14 10:40 | 48.52650 | -177.10441 | 35061 ft | 464 kts | 81° |
| 2026-04-14 10:41 | 48.54225 | -177.01010 | 35059 ft | 464 kts | 81° |
| 2026-04-14 10:41 | 48.55793 | -176.91571 | 35056 ft | 462 kts | 81° |
| 2026-04-14 10:42 | 48.57349 | -176.82155 | 35056 ft | 462 kts | 81° |
| 2026-04-14 10:42 | 48.58896 | -176.72737 | 35062 ft | 462 kts | 81° |
| 2026-04-14 10:43 | 48.60434 | -176.63322 | 35087 ft | 462 kts | 82° |
| 2026-04-14 10:43 | 48.61964 | -176.53894 | 35070 ft | 462 kts | 82° |
| 2026-04-14 10:44 | 48.63479 | -176.44521 | 35072 ft | 462 kts | 81° |
| 2026-04-14 10:44 | 48.64995 | -176.35083 | 35076 ft | 462 kts | 81° |
| 2026-04-14 10:45 | 48.66503 | -176.25638 | 35083 ft | 462 kts | 81° |
| 2026-04-14 10:45 | 48.68004 | -176.16189 | 35078 ft | 462 kts | 82° |
| 2026-04-14 10:46 | 48.69496 | -176.06734 | 35053 ft | 462 kts | 81° |
| 2026-04-14 10:46 | 48.70979 | -175.97295 | 35079 ft | 461 kts | 81° |
| 2026-04-14 10:47 | 48.72450 | -175.87868 | 35085 ft | 460 kts | 81° |
| 2026-04-14 10:47 | 48.73912 | -175.78447 | 35092 ft | 459 kts | 81° |
| 2026-04-14 10:48 | 48.75364 | -175.69030 | 35090 ft | 459 kts | 81° |
| 2026-04-14 10:48 | 48.76809 | -175.59609 | 35093 ft | 459 kts | 81° |
| 2026-04-14 10:49 | 48.78236 | -175.50244 | 35119 ft | 459 kts | 81° |
| 2026-04-14 10:49 | 48.79666 | -175.40810 | 35099 ft | 460 kts | 81° |
| 2026-04-14 10:50 | 48.81090 | -175.31353 | 35096 ft | 460 kts | 82° |
| 2026-04-14 10:50 | 48.82508 | -175.21888 | 35101 ft | 460 kts | 82° |
| 2026-04-14 10:51 | 48.83919 | -175.12409 | 35099 ft | 460 kts | 82° |
| 2026-04-14 10:51 | 48.85322 | -175.02924 | 35103 ft | 461 kts | 82° |
| 2026-04-14 10:52 | 48.86718 | -174.93430 | 35103 ft | 461 kts | 82° |
| 2026-04-14 10:52 | 48.88106 | -174.83930 | 35109 ft | 460 kts | 82° |
| 2026-04-14 10:53 | 48.89486 | -174.74432 | 35108 ft | 460 kts | 82° |
| 2026-04-14 10:53 | 48.90855 | -174.64944 | 35108 ft | 459 kts | 82° |
| 2026-04-14 10:54 | 48.92215 | -174.55469 | 35110 ft | 458 kts | 82° |
| 2026-04-14 10:54 | 48.93564 | -174.46001 | 35115 ft | 458 kts | 82° |
| 2026-04-14 10:55 | 48.94905 | -174.36530 | 35125 ft | 458 kts | 82° |
| 2026-04-14 10:55 | 48.96239 | -174.27055 | 35100 ft | 458 kts | 82° |
| 2026-04-14 10:56 | 48.97563 | -174.17583 | 35121 ft | 457 kts | 82° |
| 2026-04-14 10:56 | 48.98872 | -174.08175 | 35125 ft | 457 kts | 82° |
| 2026-04-14 10:57 | 49.00181 | -173.98711 | 35131 ft | 457 kts | 82° |
| 2026-04-14 10:57 | 49.01538 | -173.89257 | 35131 ft | 457 kts | 81° |
| 2026-04-14 10:58 | 49.02915 | -173.79808 | 35120 ft | 457 kts | 81° |
| 2026-04-14 10:58 | 49.04280 | -173.70366 | 35127 ft | 456 kts | 81° |
| 2026-04-14 10:59 | 49.05628 | -173.60934 | 35140 ft | 455 kts | 81° |
| 2026-04-14 10:59 | 49.06965 | -173.51501 | 35140 ft | 455 kts | 82° |
| 2026-04-14 11:00 | 49.08294 | -173.42064 | 35142 ft | 455 kts | 82° |
| 2026-04-14 11:00 | 49.09615 | -173.32631 | 35133 ft | 455 kts | 82° |
| 2026-04-14 11:01 | 49.10928 | -173.23185 | 35151 ft | 455 kts | 82° |
| 2026-04-14 11:01 | 49.12235 | -173.13722 | 35151 ft | 456 kts | 82° |
| 2026-04-14 11:02 | 49.13537 | -173.04237 | 35153 ft | 457 kts | 82° |
| 2026-04-14 11:02 | 49.14834 | -172.94730 | 35149 ft | 457 kts | 82° |
| 2026-04-14 11:03 | 49.16124 | -172.85218 | 35148 ft | 457 kts | 83° |
| 2026-04-14 11:03 | 49.17403 | -172.75715 | 35153 ft | 457 kts | 83° |
| 2026-04-14 11:04 | 49.18666 | -172.66273 | 35159 ft | 456 kts | 83° |
| 2026-04-14 11:04 | 49.19928 | -172.56772 | 35157 ft | 456 kts | 83° |
| 2026-04-14 11:05 | 49.21182 | -172.47271 | 35164 ft | 456 kts | 83° |
| 2026-04-14 11:05 | 49.22427 | -172.37776 | 35159 ft | 455 kts | 83° |
| 2026-04-14 11:06 | 49.23662 | -172.28285 | 35169 ft | 455 kts | 83° |
| 2026-04-14 11:06 | 49.24890 | -172.18789 | 35173 ft | 455 kts | 83° |
| 2026-04-14 11:07 | 49.26109 | -172.09293 | 35183 ft | 455 kts | 83° |
| 2026-04-14 11:07 | 49.27322 | -171.99780 | 35174 ft | 456 kts | 83° |
| 2026-04-14 11:08 | 49.28529 | -171.90250 | 35167 ft | 456 kts | 83° |
| 2026-04-14 11:08 | 49.29728 | -171.80718 | 35177 ft | 456 kts | 83° |
| 2026-04-14 11:09 | 49.30921 | -171.71168 | 35185 ft | 456 kts | 83° |
| 2026-04-14 11:09 | 49.32107 | -171.61607 | 35181 ft | 457 kts | 83° |
| 2026-04-14 11:10 | 49.33870 | -171.47259 | 35183 ft | 456 kts | 83° |
| 2026-04-14 11:10 | 49.35034 | -171.37708 | 35177 ft | 455 kts | 83° |
| 2026-04-14 11:11 | 49.36188 | -171.28159 | 35186 ft | 455 kts | 83° |
| 2026-04-14 11:11 | 49.37333 | -171.18621 | 35193 ft | 454 kts | 83° |
| 2026-04-14 11:12 | 49.38469 | -171.09086 | 35193 ft | 454 kts | 83° |
| 2026-04-14 11:12 | 49.39596 | -170.99557 | 35207 ft | 453 kts | 83° |
| 2026-04-14 11:13 | 49.40708 | -170.90090 | 35198 ft | 454 kts | 83° |
| 2026-04-14 11:13 | 49.41819 | -170.80553 | 35205 ft | 454 kts | 83° |
| 2026-04-14 11:14 | 49.42931 | -170.70936 | 35203 ft | 455 kts | 83° |
| 2026-04-14 11:14 | 49.44022 | -170.61434 | 35202 ft | 455 kts | 83° |
| 2026-04-14 11:15 | 49.45113 | -170.51853 | 35201 ft | 455 kts | 83° |
| 2026-04-14 11:15 | 49.46197 | -170.42268 | 35198 ft | 455 kts | 83° |
| 2026-04-14 11:16 | 49.47272 | -170.32676 | 35197 ft | 455 kts | 84° |
| 2026-04-14 11:16 | 49.48340 | -170.23082 | 35209 ft | 455 kts | 84° |
| 2026-04-14 11:17 | 49.49221 | -170.15110 | 35209 ft | 455 kts | 84° |
| 2026-04-14 11:17 | 49.50449 | -170.03907 | 35207 ft | 454 kts | 84° |
| 2026-04-14 11:18 | 49.51313 | -169.95958 | 35211 ft | 453 kts | 84° |
| 2026-04-14 11:18 | 49.52345 | -169.86398 | 35214 ft | 452 kts | 84° |
| 2026-04-14 11:19 | 49.53368 | -169.76840 | 35213 ft | 453 kts | 84° |
| 2026-04-14 11:19 | 49.54386 | -169.67255 | 35224 ft | 454 kts | 84° |
| 2026-04-14 11:20 | 49.55396 | -169.57660 | 35213 ft | 454 kts | 84° |
| 2026-04-14 11:20 | 49.56400 | -169.48056 | 35224 ft | 454 kts | 84° |
| 2026-04-14 11:21 | 49.57396 | -169.38436 | 35222 ft | 455 kts | 84° |
| 2026-04-14 11:21 | 49.58384 | -169.28821 | 35226 ft | 454 kts | 84° |
| 2026-04-14 11:22 | 49.59364 | -169.19202 | 35223 ft | 454 kts | 84° |
| 2026-04-14 11:22 | 49.60334 | -169.09590 | 35219 ft | 453 kts | 84° |
| 2026-04-14 11:23 | 49.61296 | -168.99990 | 35227 ft | 453 kts | 84° |
| 2026-04-14 11:23 | 49.62247 | -168.90400 | 35231 ft | 452 kts | 84° |
| 2026-04-14 11:24 | 49.63185 | -168.80868 | 35234 ft | 452 kts | 84° |
| 2026-04-14 11:24 | 49.64127 | -168.71213 | 35236 ft | 452 kts | 84° |
| 2026-04-14 11:25 | 49.65048 | -168.61675 | 35229 ft | 453 kts | 84° |
| 2026-04-14 11:25 | 49.65969 | -168.52061 | 35243 ft | 453 kts | 84° |
| 2026-04-14 11:26 | 49.66883 | -168.42427 | 35241 ft | 454 kts | 84° |
| 2026-04-14 11:26 | 49.67791 | -168.32775 | 35242 ft | 455 kts | 84° |
| 2026-04-14 11:27 | 49.68693 | -168.23104 | 35242 ft | 455 kts | 84° |
| 2026-04-14 11:27 | 49.69585 | -168.13442 | 35241 ft | 454 kts | 84° |
| 2026-04-14 11:28 | 49.70468 | -168.03785 | 35248 ft | 454 kts | 84° |
| 2026-04-14 11:28 | 49.71342 | -167.94145 | 35249 ft | 453 kts | 84° |
| 2026-04-14 11:29 | 49.72206 | -167.84514 | 35252 ft | 452 kts | 84° |
| 2026-04-14 11:29 | 49.73062 | -167.74888 | 35256 ft | 452 kts | 84° |
| 2026-04-14 11:30 | 49.73908 | -167.65273 | 35254 ft | 451 kts | 84° |
| 2026-04-14 11:30 | 49.74746 | -167.55660 | 35260 ft | 451 kts | 84° |
| 2026-04-14 11:31 | 49.75576 | -167.46038 | 35255 ft | 452 kts | 84° |
| 2026-04-14 11:31 | 49.76399 | -167.36397 | 35264 ft | 453 kts | 84° |
| 2026-04-14 11:32 | 49.77218 | -167.26722 | 35265 ft | 454 kts | 85° |
| 2026-04-14 11:32 | 49.78029 | -167.17032 | 35264 ft | 454 kts | 84° |
| 2026-04-14 11:33 | 49.78833 | -167.07337 | 35267 ft | 455 kts | 84° |
| 2026-04-14 11:34 | 49.80023 | -166.92787 | 35269 ft | 454 kts | 84° |
| 2026-04-14 11:34 | 49.80805 | -166.83091 | 35271 ft | 454 kts | 85° |
| 2026-04-14 11:35 | 49.81578 | -166.73410 | 35259 ft | 453 kts | 84° |
| 2026-04-14 11:35 | 49.82341 | -166.63751 | 35268 ft | 451 kts | 84° |
| 2026-04-14 11:36 | 49.83094 | -166.54118 | 35274 ft | 450 kts | 84° |
| 2026-04-14 11:36 | 49.83832 | -166.44572 | 35277 ft | 449 kts | 85° |
| 2026-04-14 11:37 | 49.84566 | -166.34970 | 35295 ft | 449 kts | 85° |
| 2026-04-14 11:37 | 49.85293 | -166.25340 | 35279 ft | 451 kts | 84° |
| 2026-04-14 11:38 | 49.86015 | -166.15681 | 35293 ft | 452 kts | 84° |
| 2026-04-14 11:38 | 49.86732 | -166.05984 | 35286 ft | 453 kts | 84° |
| 2026-04-14 11:39 | 49.87441 | -165.96270 | 35282 ft | 454 kts | 85° |
| 2026-04-14 11:39 | 49.88143 | -165.86552 | 35284 ft | 454 kts | 85° |
| 2026-04-14 11:40 | 49.88836 | -165.76834 | 35284 ft | 453 kts | 85° |
| 2026-04-14 11:40 | 49.89519 | -165.67135 | 35287 ft | 452 kts | 85° |
| 2026-04-14 11:41 | 49.90194 | -165.57448 | 35288 ft | 451 kts | 85° |
| 2026-04-14 11:41 | 49.90859 | -165.47771 | 35290 ft | 451 kts | 85° |
| 2026-04-14 11:42 | 49.91515 | -165.38105 | 35291 ft | 451 kts | 85° |
| 2026-04-14 11:42 | 49.92164 | -165.28432 | 35286 ft | 451 kts | 85° |
| 2026-04-14 11:43 | 49.92800 | -165.18828 | 35304 ft | 450 kts | 85° |
| 2026-04-14 11:43 | 49.93433 | -165.09143 | 35292 ft | 451 kts | 85° |
| 2026-04-14 11:44 | 49.94059 | -164.99440 | 35298 ft | 452 kts | 85° |
| 2026-04-14 11:44 | 49.94678 | -164.89708 | 35296 ft | 453 kts | 85° |
| 2026-04-14 11:45 | 49.95291 | -164.79956 | 35295 ft | 454 kts | 85° |
| 2026-04-14 11:45 | 49.95895 | -164.70203 | 35298 ft | 454 kts | 85° |
| 2026-04-14 11:46 | 49.96491 | -164.60455 | 35294 ft | 453 kts | 85° |
| 2026-04-14 11:46 | 49.97077 | -164.50724 | 35297 ft | 452 kts | 85° |
| 2026-04-14 11:47 | 49.97654 | -164.41016 | 35298 ft | 451 kts | 85° |
| 2026-04-14 11:47 | 49.98218 | -164.31382 | 35293 ft | 450 kts | 85° |
| 2026-04-14 11:48 | 49.98777 | -164.21696 | 35304 ft | 450 kts | 85° |
| 2026-04-14 11:48 | 49.99328 | -164.12016 | 35304 ft | 450 kts | 85° |
| 2026-04-14 11:49 | 49.99872 | -164.02330 | 35305 ft | 450 kts | 85° |
| 2026-04-14 11:49 | 50.00336 | -163.92625 | 35306 ft | 451 kts | 86° |
| 2026-04-14 11:50 | 50.00684 | -163.82882 | 35308 ft | 452 kts | 87° |
| 2026-04-14 11:50 | 50.01019 | -163.73118 | 35310 ft | 453 kts | 86° |
| 2026-04-14 11:51 | 50.01532 | -163.58453 | 35306 ft | 453 kts | 86° |
| 2026-04-14 11:51 | 50.01872 | -163.48681 | 35309 ft | 452 kts | 86° |
| 2026-04-14 11:52 | 50.02203 | -163.38926 | 35306 ft | 452 kts | 87° |
| 2026-04-14 11:52 | 50.02525 | -163.29178 | 35309 ft | 451 kts | 86° |
| 2026-04-14 11:53 | 50.02837 | -163.19517 | 35308 ft | 450 kts | 87° |
| 2026-04-14 11:53 | 50.03141 | -163.09802 | 35309 ft | 449 kts | 87° |
| 2026-04-14 11:54 | 50.03438 | -163.00102 | 35310 ft | 449 kts | 87° |
| 2026-04-14 11:54 | 50.03726 | -162.90398 | 35316 ft | 449 kts | 87° |
| 2026-04-14 11:55 | 50.04006 | -162.80701 | 35318 ft | 449 kts | 87° |
| 2026-04-14 11:55 | 50.04278 | -162.70998 | 35319 ft | 449 kts | 87° |
| 2026-04-14 11:56 | 50.04542 | -162.61284 | 35315 ft | 450 kts | 87° |
| 2026-04-14 11:56 | 50.04798 | -162.51553 | 35322 ft | 451 kts | 87° |
| 2026-04-14 11:57 | 50.05047 | -162.41802 | 35319 ft | 452 kts | 87° |
| 2026-04-14 11:57 | 50.05288 | -162.32031 | 35322 ft | 452 kts | 87° |
| 2026-04-14 11:58 | 50.05521 | -162.22257 | 35320 ft | 452 kts | 87° |
| 2026-04-14 11:58 | 50.05746 | -162.12480 | 35320 ft | 452 kts | 87° |
| 2026-04-14 11:59 | 50.05962 | -162.02707 | 35320 ft | 452 kts | 87° |
| 2026-04-14 11:59 | 50.06170 | -161.92944 | 35317 ft | 451 kts | 87° |
| 2026-04-14 12:00 | 50.06369 | -161.83196 | 35322 ft | 450 kts | 87° |
| 2026-04-14 12:00 | 50.06561 | -161.73451 | 35322 ft | 450 kts | 87° |
| 2026-04-14 12:01 | 50.06743 | -161.63725 | 35323 ft | 450 kts | 87° |
| 2026-04-14 12:01 | 50.06918 | -161.54001 | 35320 ft | 449 kts | 87° |
| 2026-04-14 12:02 | 50.07083 | -161.44346 | 35321 ft | 449 kts | 87° |
| 2026-04-14 12:02 | 50.07241 | -161.34636 | 35325 ft | 449 kts | 87° |
| 2026-04-14 12:03 | 50.07391 | -161.24924 | 35322 ft | 449 kts | 87° |
| 2026-04-14 12:03 | 50.07533 | -161.15217 | 35324 ft | 448 kts | 87° |
| 2026-04-14 12:04 | 50.07667 | -161.05515 | 35323 ft | 448 kts | 88° |
| 2026-04-14 12:04 | 50.07792 | -160.95816 | 35326 ft | 448 kts | 88° |
| 2026-04-14 12:05 | 50.07910 | -160.86115 | 35324 ft | 448 kts | 88° |
| 2026-04-14 12:05 | 50.08019 | -160.76412 | 35329 ft | 448 kts | 88° |
| 2026-04-14 12:06 | 50.08121 | -160.66710 | 35327 ft | 448 kts | 88° |
| 2026-04-14 12:06 | 50.08214 | -160.57007 | 35326 ft | 448 kts | 88° |
| 2026-04-14 12:07 | 50.08299 | -160.47305 | 35326 ft | 448 kts | 88° |
| 2026-04-14 12:07 | 50.08376 | -160.37610 | 35329 ft | 448 kts | 88° |
| 2026-04-14 12:08 | 50.08434 | -160.29549 | 35323 ft | 447 kts | 88° |
| 2026-04-14 12:08 | 50.08496 | -160.19882 | 35328 ft | 447 kts | 88° |
| 2026-04-14 12:09 | 50.08550 | -160.10215 | 35347 ft | 446 kts | 88° |
| 2026-04-14 12:09 | 50.08603 | -159.98969 | 35334 ft | 447 kts | 88° |
| 2026-04-14 12:10 | 50.08634 | -159.90844 | 35336 ft | 448 kts | 88° |
| 2026-04-14 12:10 | 50.08664 | -159.81191 | 35332 ft | 449 kts | 88° |
| 2026-04-14 12:11 | 50.08686 | -159.71398 | 35328 ft | 450 kts | 88° |
| 2026-04-14 12:11 | 50.08700 | -159.61729 | 35331 ft | 450 kts | 88° |
| 2026-04-14 12:12 | 50.08705 | -159.51992 | 35330 ft | 449 kts | 88° |
| 2026-04-14 12:12 | 50.08703 | -159.42268 | 35331 ft | 449 kts | 88° |
| 2026-04-14 12:13 | 50.08692 | -159.32563 | 35330 ft | 448 kts | 88° |
| 2026-04-14 12:13 | 50.08674 | -159.22869 | 35331 ft | 447 kts | 88° |
| 2026-04-14 12:14 | 50.08647 | -159.13191 | 35330 ft | 447 kts | 88° |
| 2026-04-14 12:14 | 50.08612 | -159.03519 | 35332 ft | 447 kts | 88° |
| 2026-04-14 12:15 | 50.08570 | -158.93846 | 35338 ft | 447 kts | 88° |
| 2026-04-14 12:15 | 50.08519 | -158.84180 | 35333 ft | 446 kts | 89° |
| 2026-04-14 12:16 | 50.08461 | -158.74505 | 35337 ft | 448 kts | 88° |
| 2026-04-14 12:16 | 50.08394 | -158.64803 | 35343 ft | 449 kts | 88° |
| 2026-04-14 12:17 | 50.08319 | -158.55062 | 35340 ft | 451 kts | 89° |
| 2026-04-14 12:17 | 50.08235 | -158.45291 | 35338 ft | 452 kts | 89° |
| 2026-04-14 12:18 | 50.08143 | -158.35505 | 35333 ft | 452 kts | 89° |
| 2026-04-14 12:18 | 50.08042 | -158.25726 | 35333 ft | 452 kts | 89° |
| 2026-04-14 12:19 | 50.07934 | -158.15959 | 35332 ft | 451 kts | 89° |
| 2026-04-14 12:19 | 50.07817 | -158.06215 | 35333 ft | 450 kts | 89° |
| 2026-04-14 12:20 | 50.07693 | -157.96486 | 35334 ft | 449 kts | 89° |
| 2026-04-14 12:20 | 50.07562 | -157.86845 | 35332 ft | 448 kts | 89° |
| 2026-04-14 12:21 | 50.07422 | -157.77154 | 35334 ft | 448 kts | 89° |
| 2026-04-14 12:21 | 50.07274 | -157.67472 | 35330 ft | 447 kts | 89° |
| 2026-04-14 12:22 | 50.07118 | -157.57797 | 35332 ft | 447 kts | 89° |
| 2026-04-14 12:22 | 50.06954 | -157.48115 | 35355 ft | 448 kts | 89° |
| 2026-04-14 12:23 | 50.06782 | -157.38402 | 35344 ft | 450 kts | 89° |
| 2026-04-14 12:23 | 50.06601 | -157.28644 | 35337 ft | 452 kts | 89° |
| 2026-04-14 12:24 | 50.06410 | -157.18847 | 35335 ft | 453 kts | 89° |
| 2026-04-14 12:24 | 50.06211 | -157.09025 | 35331 ft | 454 kts | 89° |
| 2026-04-14 12:25 | 50.06003 | -156.99202 | 35329 ft | 454 kts | 89° |
| 2026-04-14 12:25 | 50.05787 | -156.89399 | 35329 ft | 453 kts | 89° |
| 2026-04-14 12:26 | 50.05564 | -156.79616 | 35330 ft | 452 kts | 89° |
| 2026-04-14 12:26 | 50.05333 | -156.69859 | 35330 ft | 451 kts | 89° |
| 2026-04-14 12:27 | 50.05094 | -156.60114 | 35331 ft | 450 kts | 89° |
| 2026-04-14 12:27 | 50.04848 | -156.50386 | 35330 ft | 450 kts | 90° |
| 2026-04-14 12:28 | 50.04593 | -156.40672 | 35330 ft | 449 kts | 90° |
| 2026-04-14 12:28 | 50.04331 | -156.30954 | 35328 ft | 449 kts | 90° |
| 2026-04-14 12:29 | 50.04060 | -156.21243 | 35329 ft | 450 kts | 90° |
| 2026-04-14 12:29 | 50.03781 | -156.11501 | 35331 ft | 452 kts | 90° |
| 2026-04-14 12:30 | 50.03493 | -156.01725 | 35328 ft | 453 kts | 90° |
| 2026-04-14 12:30 | 50.03195 | -155.91916 | 35333 ft | 455 kts | 90° |
| 2026-04-14 12:31 | 50.02887 | -155.82074 | 35324 ft | 456 kts | 90° |
| 2026-04-14 12:31 | 50.02571 | -155.72223 | 35316 ft | 456 kts | 90° |
| 2026-04-14 12:32 | 50.02249 | -155.62443 | 35326 ft | 455 kts | 90° |
| 2026-04-14 12:32 | 50.01914 | -155.52550 | 35324 ft | 454 kts | 90° |
| 2026-04-14 12:33 | 50.01577 | -155.42817 | 35318 ft | 454 kts | 90° |
| 2026-04-14 12:33 | 50.01230 | -155.33033 | 35310 ft | 453 kts | 90° |
| 2026-04-14 12:34 | 50.00876 | -155.23265 | 35324 ft | 452 kts | 90° |
| 2026-04-14 12:34 | 50.00514 | -155.13505 | 35312 ft | 452 kts | 90° |
| 2026-04-14 12:35 | 50.00145 | -155.03738 | 35325 ft | 453 kts | 90° |
| 2026-04-14 12:35 | 49.99715 | -154.93978 | 35323 ft | 453 kts | 92° |
| 2026-04-14 12:36 | 49.99151 | -154.84205 | 35324 ft | 455 kts | 92° |
| 2026-04-14 12:36 | 49.98564 | -154.74405 | 35320 ft | 456 kts | 92° |
| 2026-04-14 12:37 | 49.97980 | -154.64565 | 35322 ft | 458 kts | 92° |
| 2026-04-14 12:37 | 49.97397 | -154.54704 | 35322 ft | 459 kts | 92° |
| 2026-04-14 12:38 | 49.96508 | -154.39884 | 35312 ft | 459 kts | 92° |
| 2026-04-14 12:39 | 49.95905 | -154.30010 | 35308 ft | 459 kts | 92° |
| 2026-04-14 12:39 | 49.95295 | -154.20153 | 35312 ft | 458 kts | 92° |
| 2026-04-14 12:40 | 49.94677 | -154.10314 | 35305 ft | 457 kts | 92° |
| 2026-04-14 12:40 | 49.94052 | -154.00500 | 35307 ft | 456 kts | 92° |
| 2026-04-14 12:41 | 49.93419 | -153.90700 | 35309 ft | 456 kts | 93° |
| 2026-04-14 12:41 | 49.92780 | -153.80914 | 35308 ft | 455 kts | 93° |
| 2026-04-14 12:42 | 49.92132 | -153.71140 | 35310 ft | 455 kts | 93° |
| 2026-04-14 12:42 | 49.91477 | -153.61365 | 35306 ft | 456 kts | 93° |
| 2026-04-14 12:43 | 49.90812 | -153.51588 | 35311 ft | 456 kts | 93° |
| 2026-04-14 12:43 | 49.90138 | -153.41787 | 35306 ft | 458 kts | 93° |
| 2026-04-14 12:44 | 49.89457 | -153.32011 | 35311 ft | 460 kts | 93° |
| 2026-04-14 12:44 | 49.88761 | -153.22135 | 35311 ft | 461 kts | 93° |
| 2026-04-14 12:45 | 49.87696 | -153.07281 | 35300 ft | 463 kts | 93° |
| 2026-04-14 12:45 | 49.86975 | -152.97370 | 35296 ft | 462 kts | 93° |
| 2026-04-14 12:46 | 49.86247 | -152.87483 | 35294 ft | 461 kts | 93° |
| 2026-04-14 12:46 | 49.85512 | -152.77614 | 35296 ft | 460 kts | 93° |
| 2026-04-14 12:47 | 49.84770 | -152.67767 | 35297 ft | 460 kts | 93° |
| 2026-04-14 12:47 | 49.84021 | -152.57937 | 35295 ft | 459 kts | 93° |
| 2026-04-14 12:48 | 49.83264 | -152.48122 | 35292 ft | 459 kts | 94° |
| 2026-04-14 12:48 | 49.82501 | -152.38320 | 35292 ft | 459 kts | 94° |
| 2026-04-14 12:49 | 49.81728 | -152.28516 | 35289 ft | 459 kts | 94° |
| 2026-04-14 12:49 | 49.80947 | -152.18709 | 35291 ft | 459 kts | 94° |
| 2026-04-14 12:50 | 49.79763 | -152.04053 | 35299 ft | 460 kts | 94° |
| 2026-04-14 12:51 | 49.78957 | -151.94205 | 35293 ft | 462 kts | 94° |
| 2026-04-14 12:51 | 49.78141 | -151.84341 | 35290 ft | 463 kts | 94° |
| 2026-04-14 12:52 | 49.77315 | -151.74459 | 35289 ft | 464 kts | 94° |
| 2026-04-14 12:52 | 49.76479 | -151.64564 | 35285 ft | 464 kts | 94° |
| 2026-04-14 12:53 | 49.75633 | -151.54667 | 35285 ft | 464 kts | 94° |
| 2026-04-14 12:53 | 49.74781 | -151.44789 | 35277 ft | 463 kts | 94° |
| 2026-04-14 12:54 | 49.73921 | -151.34924 | 35279 ft | 463 kts | 94° |
| 2026-04-14 12:54 | 49.73054 | -151.25073 | 35278 ft | 462 kts | 94° |
| 2026-04-14 12:55 | 49.72180 | -151.15234 | 35280 ft | 462 kts | 94° |
| 2026-04-14 12:55 | 49.71297 | -151.05403 | 35280 ft | 462 kts | 94° |
| 2026-04-14 12:56 | 49.70406 | -150.95572 | 35275 ft | 462 kts | 94° |
| 2026-04-14 12:56 | 49.69507 | -150.85747 | 35275 ft | 462 kts | 94° |
| 2026-04-14 12:57 | 49.68753 | -150.77579 | 35276 ft | 462 kts | 94° |
| 2026-04-14 12:57 | 49.67837 | -150.67751 | 35304 ft | 463 kts | 94° |
| 2026-04-14 12:58 | 49.66760 | -150.56301 | 35277 ft | 464 kts | 94° |
| 2026-04-14 12:58 | 49.65975 | -150.48032 | 35273 ft | 465 kts | 95° |
| 2026-04-14 12:59 | 49.65028 | -150.38152 | 35264 ft | 466 kts | 95° |
| 2026-04-14 12:59 | 49.64072 | -150.28265 | 35265 ft | 466 kts | 95° |
| 2026-04-14 13:00 | 49.63114 | -150.18442 | 35259 ft | 466 kts | 95° |
| 2026-04-14 13:00 | 49.62140 | -150.08557 | 35263 ft | 466 kts | 95° |
| 2026-04-14 13:01 | 49.61159 | -149.98682 | 35264 ft | 466 kts | 95° |
| 2026-04-14 13:01 | 49.60170 | -149.88819 | 35261 ft | 465 kts | 95° |
| 2026-04-14 13:02 | 49.59173 | -149.78961 | 35257 ft | 465 kts | 95° |
| 2026-04-14 13:02 | 49.58169 | -149.69116 | 35256 ft | 465 kts | 95° |
| 2026-04-14 13:03 | 49.57156 | -149.59276 | 35253 ft | 465 kts | 95° |
| 2026-04-14 13:03 | 49.56136 | -149.49446 | 35250 ft | 465 kts | 95° |
| 2026-04-14 13:04 | 49.55108 | -149.39624 | 35249 ft | 465 kts | 96° |
| 2026-04-14 13:04 | 49.54071 | -149.29803 | 35255 ft | 465 kts | 96° |
| 2026-04-14 13:05 | 49.53024 | -149.19968 | 35254 ft | 467 kts | 95° |
| 2026-04-14 13:05 | 49.51966 | -149.10111 | 35254 ft | 467 kts | 96° |
| 2026-04-14 13:06 | 49.50896 | -149.00232 | 35250 ft | 468 kts | 96° |
| 2026-04-14 13:06 | 49.49817 | -148.90351 | 35247 ft | 469 kts | 96° |
| 2026-04-14 13:07 | 49.48728 | -148.80459 | 35243 ft | 469 kts | 96° |
| 2026-04-14 13:07 | 49.47630 | -148.70564 | 35236 ft | 469 kts | 96° |
| 2026-04-14 13:08 | 49.46524 | -148.60675 | 35238 ft | 469 kts | 96° |
| 2026-04-14 13:08 | 49.45410 | -148.50802 | 35241 ft | 469 kts | 96° |
| 2026-04-14 13:09 | 49.44289 | -148.40938 | 35238 ft | 468 kts | 96° |
| 2026-04-14 13:09 | 49.43161 | -148.31093 | 35236 ft | 468 kts | 96° |
| 2026-04-14 13:10 | 49.42024 | -148.21251 | 35238 ft | 468 kts | 96° |
| 2026-04-14 13:10 | 49.40879 | -148.11415 | 35228 ft | 468 kts | 96° |
| 2026-04-14 13:11 | 49.39735 | -148.01653 | 35236 ft | 468 kts | 97° |
| 2026-04-14 13:11 | 49.38572 | -147.91817 | 35234 ft | 468 kts | 97° |
| 2026-04-14 13:12 | 49.37401 | -147.81980 | 35227 ft | 469 kts | 97° |
| 2026-04-14 13:12 | 49.36220 | -147.72141 | 35225 ft | 469 kts | 97° |
| 2026-04-14 13:13 | 49.35031 | -147.62301 | 35216 ft | 469 kts | 97° |
| 2026-04-14 13:13 | 49.33832 | -147.52462 | 35216 ft | 470 kts | 97° |
| 2026-04-14 13:14 | 49.32625 | -147.42627 | 35228 ft | 470 kts | 97° |
| 2026-04-14 13:14 | 49.31409 | -147.32787 | 35213 ft | 470 kts | 97° |
| 2026-04-14 13:15 | 49.30184 | -147.22958 | 35214 ft | 470 kts | 97° |
| 2026-04-14 13:15 | 49.28951 | -147.13126 | 35212 ft | 470 kts | 97° |
| 2026-04-14 13:16 | 49.27711 | -147.03310 | 35205 ft | 469 kts | 97° |
| 2026-04-14 13:16 | 49.26462 | -146.93503 | 35204 ft | 469 kts | 97° |
| 2026-04-14 13:17 | 49.25206 | -146.83705 | 35215 ft | 469 kts | 98° |
| 2026-04-14 13:17 | 49.23942 | -146.73912 | 35204 ft | 469 kts | 98° |
| 2026-04-14 13:18 | 49.22670 | -146.64127 | 35202 ft | 469 kts | 98° |
| 2026-04-14 13:18 | 49.21390 | -146.54347 | 35218 ft | 470 kts | 98° |
| 2026-04-14 13:19 | 49.20098 | -146.44545 | 35212 ft | 470 kts | 98° |
| 2026-04-14 13:19 | 49.18796 | -146.34737 | 35202 ft | 471 kts | 98° |
| 2026-04-14 13:20 | 49.17484 | -146.24919 | 35206 ft | 472 kts | 98° |
| 2026-04-14 13:20 | 49.16170 | -146.15158 | 35200 ft | 473 kts | 98° |
| 2026-04-14 13:21 | 49.14838 | -146.05323 | 35196 ft | 473 kts | 98° |
| 2026-04-14 13:21 | 49.13495 | -145.95479 | 35190 ft | 473 kts | 98° |
| 2026-04-14 13:22 | 49.12145 | -145.85650 | 35191 ft | 473 kts | 98° |
| 2026-04-14 13:22 | 49.10787 | -145.75828 | 35189 ft | 473 kts | 98° |
| 2026-04-14 13:23 | 49.09421 | -145.66017 | 35189 ft | 473 kts | 98° |
| 2026-04-14 13:23 | 49.08047 | -145.56209 | 35189 ft | 473 kts | 99° |
| 2026-04-14 13:24 | 49.06666 | -145.46413 | 35183 ft | 472 kts | 99° |
| 2026-04-14 13:24 | 49.04578 | -145.31729 | 35182 ft | 472 kts | 99° |
| 2026-04-14 13:25 | 49.03176 | -145.21946 | 35213 ft | 473 kts | 99° |
| 2026-04-14 13:26 | 49.00333 | -145.02283 | 35182 ft | 477 kts | 99° |
| 2026-04-14 13:26 | 48.98782 | -144.92454 | 35176 ft | 478 kts | 102° |
| 2026-04-14 13:27 | 48.97021 | -144.82678 | 35170 ft | 479 kts | 103° |
| 2026-04-14 13:27 | 48.95242 | -144.72906 | 35170 ft | 479 kts | 102° |
| 2026-04-14 13:28 | 48.93485 | -144.63139 | 35166 ft | 479 kts | 102° |
| 2026-04-14 13:28 | 48.91749 | -144.53441 | 35157 ft | 478 kts | 102° |
| 2026-04-14 13:29 | 48.89999 | -144.43701 | 35162 ft | 477 kts | 102° |
| 2026-04-14 13:29 | 48.88243 | -144.33975 | 35160 ft | 477 kts | 103° |
| 2026-04-14 13:30 | 48.86479 | -144.24266 | 35159 ft | 477 kts | 103° |
| 2026-04-14 13:30 | 48.84707 | -144.14568 | 35161 ft | 477 kts | 103° |
| 2026-04-14 13:31 | 48.82927 | -144.04881 | 35159 ft | 477 kts | 103° |
| 2026-04-14 13:31 | 48.81138 | -143.95190 | 35150 ft | 477 kts | 103° |
| 2026-04-14 13:32 | 48.79340 | -143.85502 | 35151 ft | 477 kts | 103° |
| 2026-04-14 13:32 | 48.77534 | -143.75824 | 35148 ft | 477 kts | 103° |
| 2026-04-14 13:33 | 48.75713 | -143.66113 | 35153 ft | 480 kts | 103° |
| 2026-04-14 13:33 | 48.73876 | -143.56370 | 35143 ft | 482 kts | 103° |
| 2026-04-14 13:34 | 48.71096 | -143.41721 | 35143 ft | 483 kts | 103° |
| 2026-04-14 13:35 | 48.69228 | -143.31943 | 35141 ft | 484 kts | 103° |
| 2026-04-14 13:35 | 48.67352 | -143.22174 | 35141 ft | 483 kts | 103° |
| 2026-04-14 13:36 | 48.65483 | -143.12488 | 35136 ft | 483 kts | 103° |
| 2026-04-14 13:36 | 48.63594 | -143.02750 | 35136 ft | 482 kts | 104° |
| 2026-04-14 13:37 | 48.61698 | -142.93024 | 35133 ft | 482 kts | 104° |
| 2026-04-14 13:37 | 48.59796 | -142.83316 | 35133 ft | 482 kts | 104° |
| 2026-04-14 13:38 | 48.57886 | -142.73616 | 35133 ft | 482 kts | 104° |
| 2026-04-14 13:38 | 48.55966 | -142.63914 | 35133 ft | 482 kts | 104° |
| 2026-04-14 13:39 | 48.54036 | -142.54213 | 35126 ft | 483 kts | 104° |
| 2026-04-14 13:39 | 48.52097 | -142.44512 | 35123 ft | 483 kts | 104° |
| 2026-04-14 13:40 | 48.50147 | -142.34804 | 35122 ft | 484 kts | 104° |
| 2026-04-14 13:40 | 48.48188 | -142.25104 | 35156 ft | 484 kts | 104° |
| 2026-04-14 13:41 | 48.46216 | -142.15380 | 35127 ft | 487 kts | 104° |
| 2026-04-14 13:41 | 48.44226 | -142.05622 | 35125 ft | 488 kts | 104° |
| 2026-04-14 13:42 | 48.42224 | -141.95848 | 35111 ft | 489 kts | 104° |
| 2026-04-14 13:42 | 48.40208 | -141.86062 | 35111 ft | 490 kts | 104° |
| 2026-04-14 13:43 | 48.38184 | -141.76280 | 35111 ft | 490 kts | 105° |
| 2026-04-14 13:43 | 48.36153 | -141.66511 | 35110 ft | 489 kts | 105° |
| 2026-04-14 13:44 | 48.34115 | -141.56760 | 35106 ft | 489 kts | 105° |
| 2026-04-14 13:44 | 48.32072 | -141.47026 | 35106 ft | 488 kts | 105° |
| 2026-04-14 13:45 | 48.30036 | -141.37379 | 35106 ft | 487 kts | 105° |
| 2026-04-14 13:45 | 48.27981 | -141.27684 | 35104 ft | 487 kts | 105° |
| 2026-04-14 13:46 | 48.25918 | -141.17995 | 35102 ft | 487 kts | 105° |
| 2026-04-14 13:46 | 48.23846 | -141.08312 | 35092 ft | 487 kts | 105° |
| 2026-04-14 13:47 | 48.21767 | -140.98641 | 35102 ft | 487 kts | 105° |
| 2026-04-14 13:47 | 48.20031 | -140.90604 | 35096 ft | 488 kts | 105° |
| 2026-04-14 13:48 | 48.17934 | -140.80933 | 35099 ft | 488 kts | 105° |
| 2026-04-14 13:48 | 48.15825 | -140.71254 | 35100 ft | 491 kts | 105° |
| 2026-04-14 13:49 | 48.13695 | -140.61517 | 35096 ft | 493 kts | 106° |
| 2026-04-14 13:49 | 48.11544 | -140.51739 | 35084 ft | 495 kts | 106° |
| 2026-04-14 13:50 | 48.09379 | -140.41942 | 35087 ft | 497 kts | 106° |
| 2026-04-14 13:50 | 48.07202 | -140.32136 | 35078 ft | 497 kts | 106° |
| 2026-04-14 13:51 | 48.05017 | -140.22338 | 35080 ft | 496 kts | 106° |
| 2026-04-14 13:51 | 48.02829 | -140.12572 | 35071 ft | 495 kts | 106° |
| 2026-04-14 13:52 | 48.00638 | -140.02829 | 35072 ft | 494 kts | 106° |
| 2026-04-14 13:52 | 47.98390 | -139.93136 | 35073 ft | 494 kts | 108° |
| 2026-04-14 13:53 | 47.96033 | -139.83515 | 35066 ft | 493 kts | 109° |
| 2026-04-14 13:53 | 47.93661 | -139.73911 | 35069 ft | 493 kts | 109° |
| 2026-04-14 13:54 | 47.91297 | -139.64314 | 35070 ft | 493 kts | 108° |
| 2026-04-14 13:54 | 47.88935 | -139.54723 | 35067 ft | 493 kts | 108° |
| 2026-04-14 13:55 | 47.86564 | -139.45123 | 35059 ft | 494 kts | 109° |
| 2026-04-14 13:55 | 47.84183 | -139.35531 | 35060 ft | 494 kts | 109° |
| 2026-04-14 13:56 | 47.81790 | -139.25932 | 35098 ft | 495 kts | 109° |
| 2026-04-14 13:56 | 47.79378 | -139.16299 | 35068 ft | 498 kts | 109° |
| 2026-04-14 13:57 | 47.76947 | -139.06629 | 35067 ft | 500 kts | 109° |
| 2026-04-14 13:57 | 47.74497 | -138.96927 | 35059 ft | 502 kts | 109° |
| 2026-04-14 13:58 | 47.72033 | -138.87217 | 35048 ft | 503 kts | 109° |
| 2026-04-14 13:58 | 47.69559 | -138.77504 | 35048 ft | 503 kts | 109° |
| 2026-04-14 13:59 | 47.67082 | -138.67821 | 35040 ft | 501 kts | 110° |
| 2026-04-14 13:59 | 47.64604 | -138.58174 | 35042 ft | 500 kts | 110° |
| 2026-04-14 14:00 | 47.62140 | -138.48620 | 35043 ft | 499 kts | 110° |
| 2026-04-14 14:00 | 47.59655 | -138.39029 | 35047 ft | 498 kts | 110° |
| 2026-04-14 14:01 | 47.57164 | -138.29452 | 35043 ft | 498 kts | 110° |
| 2026-04-14 14:01 | 47.54667 | -138.19889 | 35040 ft | 498 kts | 110° |
| 2026-04-14 14:02 | 47.52157 | -138.10322 | 35036 ft | 499 kts | 110° |
| 2026-04-14 14:02 | 47.49639 | -138.00761 | 35036 ft | 499 kts | 110° |
| 2026-04-14 14:03 | 47.47111 | -137.91200 | 35033 ft | 499 kts | 110° |
| 2026-04-14 14:03 | 47.44577 | -137.81657 | 35034 ft | 499 kts | 110° |
| 2026-04-14 14:04 | 47.42033 | -137.72115 | 35068 ft | 500 kts | 111° |
| 2026-04-14 14:04 | 47.39473 | -137.62551 | 35034 ft | 501 kts | 111° |
| 2026-04-14 14:05 | 47.36902 | -137.52986 | 35032 ft | 502 kts | 111° |
| 2026-04-14 14:05 | 47.34321 | -137.43424 | 35022 ft | 502 kts | 111° |
| 2026-04-14 14:06 | 47.31731 | -137.33866 | 35019 ft | 502 kts | 111° |
| 2026-04-14 14:06 | 47.29134 | -137.24321 | 35019 ft | 502 kts | 111° |
| 2026-04-14 14:07 | 47.26534 | -137.14805 | 35008 ft | 500 kts | 112° |
| 2026-04-14 14:07 | 47.23949 | -137.05380 | 35014 ft | 499 kts | 112° |
| 2026-04-14 14:08 | 47.21329 | -136.95863 | 35019 ft | 498 kts | 112° |
| 2026-04-14 14:08 | 47.18738 | -136.86491 | 34982 ft | 498 kts | 112° |
| 2026-04-14 14:09 | 47.16128 | -136.77089 | 35002 ft | 496 kts | 112° |
| 2026-04-14 14:09 | 47.13516 | -136.67712 | 35005 ft | 496 kts | 112° |
| 2026-04-14 14:10 | 47.10898 | -136.58357 | 35010 ft | 495 kts | 112° |
| 2026-04-14 14:10 | 47.08276 | -136.49017 | 34998 ft | 495 kts | 112° |
| 2026-04-14 14:11 | 47.05646 | -136.39687 | 35009 ft | 495 kts | 112° |
| 2026-04-14 14:11 | 47.03009 | -136.30372 | 35007 ft | 495 kts | 112° |
| 2026-04-14 14:12 | 47.00362 | -136.21054 | 35016 ft | 497 kts | 113° |
| 2026-04-14 14:12 | 46.97696 | -136.11705 | 34995 ft | 498 kts | 113° |
| 2026-04-14 14:13 | 46.95018 | -136.02349 | 35002 ft | 498 kts | 113° |
| 2026-04-14 14:13 | 46.92330 | -135.92998 | 34993 ft | 499 kts | 113° |
| 2026-04-14 14:14 | 46.89634 | -135.83652 | 34993 ft | 499 kts | 113° |
| 2026-04-14 14:14 | 46.86932 | -135.74323 | 34966 ft | 498 kts | 114° |
| 2026-04-14 14:15 | 46.84234 | -135.65039 | 34979 ft | 495 kts | 114° |
| 2026-04-14 14:15 | 46.81541 | -135.55810 | 34978 ft | 493 kts | 114° |
| 2026-04-14 14:16 | 46.78847 | -135.46614 | 34977 ft | 492 kts | 114° |
| 2026-04-14 14:16 | 46.76152 | -135.37446 | 34972 ft | 491 kts | 114° |
| 2026-04-14 14:17 | 46.72104 | -135.23742 | 34978 ft | 490 kts | 114° |
| 2026-04-14 14:17 | 46.69399 | -135.14625 | 34979 ft | 490 kts | 114° |
| 2026-04-14 14:18 | 46.66704 | -135.05575 | 34978 ft | 491 kts | 114° |
| 2026-04-14 14:18 | 46.63984 | -134.96473 | 34966 ft | 490 kts | 114° |
| 2026-04-14 14:19 | 46.61264 | -134.87406 | 34965 ft | 489 kts | 114° |
| 2026-04-14 14:19 | 46.58540 | -134.78359 | 35002 ft | 488 kts | 115° |
| 2026-04-14 14:20 | 46.55805 | -134.69309 | 34976 ft | 489 kts | 115° |
| 2026-04-14 14:20 | 46.53058 | -134.60252 | 34975 ft | 491 kts | 115° |
| 2026-04-14 14:21 | 46.50296 | -134.51178 | 34974 ft | 492 kts | 115° |
| 2026-04-14 14:21 | 46.47522 | -134.42095 | 34973 ft | 493 kts | 115° |
| 2026-04-14 14:22 | 46.44736 | -134.33006 | 34949 ft | 493 kts | 115° |
| 2026-04-14 14:22 | 46.41948 | -134.23943 | 34961 ft | 492 kts | 115° |
| 2026-04-14 14:23 | 46.39161 | -134.14916 | 34961 ft | 490 kts | 115° |
| 2026-04-14 14:23 | 46.36377 | -134.05934 | 34965 ft | 488 kts | 116° |
| 2026-04-14 14:24 | 46.33615 | -133.97050 | 34951 ft | 487 kts | 116° |
| 2026-04-14 14:24 | 46.30837 | -133.88149 | 34976 ft | 485 kts | 116° |
| 2026-04-14 14:25 | 46.28057 | -133.79272 | 34976 ft | 484 kts | 116° |
| 2026-04-14 14:25 | 46.25276 | -133.70422 | 34982 ft | 483 kts | 116° |
| 2026-04-14 14:26 | 46.22489 | -133.61584 | 34958 ft | 483 kts | 116° |
| 2026-04-14 14:26 | 46.19700 | -133.52769 | 34977 ft | 482 kts | 116° |
| 2026-04-14 14:27 | 46.16907 | -133.43975 | 34987 ft | 482 kts | 116° |
| 2026-04-14 14:27 | 46.14111 | -133.35200 | 34994 ft | 481 kts | 116° |
| 2026-04-14 14:28 | 46.11312 | -133.26442 | 34978 ft | 481 kts | 116° |
| 2026-04-14 14:28 | 46.08512 | -133.17713 | 34993 ft | 479 kts | 116° |
| 2026-04-14 14:29 | 46.05714 | -133.09022 | 34991 ft | 478 kts | 116° |
| 2026-04-14 14:29 | 46.02917 | -133.00361 | 34998 ft | 477 kts | 116° |
| 2026-04-14 14:30 | 46.00120 | -132.91728 | 34989 ft | 475 kts | 116° |
| 2026-04-14 14:30 | 45.97325 | -132.83131 | 34999 ft | 474 kts | 116° |
| 2026-04-14 14:31 | 45.94527 | -132.74554 | 35010 ft | 473 kts | 117° |
| 2026-04-14 14:31 | 45.91728 | -132.66002 | 35015 ft | 473 kts | 117° |
| 2026-04-14 14:32 | 45.88923 | -132.57459 | 35003 ft | 473 kts | 117° |
| 2026-04-14 14:32 | 45.86116 | -132.48939 | 35014 ft | 472 kts | 117° |
| 2026-04-14 14:33 | 45.83304 | -132.40430 | 35020 ft | 472 kts | 117° |
| 2026-04-14 14:33 | 45.80507 | -132.31995 | 35029 ft | 472 kts | 117° |
| 2026-04-14 14:34 | 45.76276 | -132.19284 | 35027 ft | 470 kts | 117° |
| 2026-04-14 14:35 | 45.73456 | -132.10848 | 35031 ft | 469 kts | 117° |
| 2026-04-14 14:35 | 45.70636 | -132.02437 | 35042 ft | 469 kts | 117° |
| 2026-04-14 14:36 | 45.68268 | -131.95395 | 35041 ft | 469 kts | 117° |
| 2026-04-14 14:36 | 45.65454 | -131.87054 | 35030 ft | 468 kts | 117° |
| 2026-04-14 14:37 | 45.62621 | -131.78681 | 35037 ft | 468 kts | 117° |
| 2026-04-14 14:37 | 45.59783 | -131.70321 | 35044 ft | 467 kts | 117° |
| 2026-04-14 14:38 | 45.56942 | -131.61978 | 35044 ft | 467 kts | 117° |
| 2026-04-14 14:38 | 45.54097 | -131.53649 | 35050 ft | 466 kts | 117° |
| 2026-04-14 14:39 | 45.51255 | -131.45355 | 35040 ft | 465 kts | 117° |
| 2026-04-14 14:39 | 45.48413 | -131.37086 | 35040 ft | 464 kts | 117° |
| 2026-04-14 14:40 | 45.45569 | -131.28837 | 35052 ft | 463 kts | 117° |
| 2026-04-14 14:40 | 45.42721 | -131.20604 | 35047 ft | 463 kts | 117° |
| 2026-04-14 14:41 | 45.39868 | -131.12380 | 35055 ft | 463 kts | 117° |
| 2026-04-14 14:41 | 45.37009 | -131.04162 | 35062 ft | 464 kts | 118° |
| 2026-04-14 14:42 | 45.34139 | -130.95942 | 35051 ft | 464 kts | 118° |
| 2026-04-14 14:42 | 45.31264 | -130.87730 | 35055 ft | 464 kts | 118° |
| 2026-04-14 14:43 | 45.28388 | -130.79540 | 35061 ft | 463 kts | 118° |
| 2026-04-14 14:43 | 45.25510 | -130.71369 | 35077 ft | 463 kts | 118° |
| 2026-04-14 14:44 | 45.22627 | -130.63212 | 35069 ft | 462 kts | 118° |
| 2026-04-14 14:44 | 45.19744 | -130.55077 | 35074 ft | 461 kts | 118° |
| 2026-04-14 14:45 | 45.16862 | -130.46967 | 35065 ft | 460 kts | 118° |
| 2026-04-14 14:45 | 45.13977 | -130.38876 | 35075 ft | 460 kts | 118° |
| 2026-04-14 14:46 | 45.11110 | -130.30857 | 35070 ft | 459 kts | 118° |
| 2026-04-14 14:46 | 45.08219 | -130.22797 | 35077 ft | 458 kts | 118° |
| 2026-04-14 14:47 | 45.05332 | -130.14770 | 35081 ft | 458 kts | 118° |
| 2026-04-14 14:47 | 45.02444 | -130.06758 | 35084 ft | 457 kts | 118° |
| 2026-04-14 14:48 | 44.99504 | -129.98804 | 35082 ft | 456 kts | 123° |
| 2026-04-14 14:48 | 44.96003 | -129.91371 | 35091 ft | 453 kts | 128° |
| 2026-04-14 14:49 | 44.92375 | -129.84100 | 35085 ft | 453 kts | 128° |
| 2026-04-14 14:49 | 44.88772 | -129.76825 | 35094 ft | 452 kts | 127° |
| 2026-04-14 14:50 | 44.85197 | -129.69530 | 35084 ft | 452 kts | 127° |
| 2026-04-14 14:50 | 44.81636 | -129.62242 | 35100 ft | 451 kts | 127° |
| 2026-04-14 14:51 | 44.78079 | -129.54975 | 35102 ft | 451 kts | 127° |
| 2026-04-14 14:51 | 44.74518 | -129.47719 | 35108 ft | 450 kts | 127° |
| 2026-04-14 14:52 | 44.70953 | -129.40478 | 35098 ft | 450 kts | 127° |
| 2026-04-14 14:52 | 44.67388 | -129.33255 | 35114 ft | 450 kts | 127° |
| 2026-04-14 14:53 | 44.63820 | -129.26043 | 35117 ft | 449 kts | 127° |
| 2026-04-14 14:53 | 44.60251 | -129.18848 | 35117 ft | 449 kts | 127° |
| 2026-04-14 14:54 | 44.56705 | -129.11718 | 35113 ft | 448 kts | 127° |
| 2026-04-14 14:54 | 44.53136 | -129.04556 | 35125 ft | 448 kts | 127° |
| 2026-04-14 14:55 | 44.49565 | -128.97412 | 35122 ft | 447 kts | 127° |
| 2026-04-14 14:55 | 44.45994 | -128.90283 | 35145 ft | 447 kts | 127° |
| 2026-04-14 14:56 | 44.40628 | -128.79603 | 35131 ft | 447 kts | 127° |
| 2026-04-14 14:56 | 44.37046 | -128.72498 | 35134 ft | 447 kts | 127° |
| 2026-04-14 14:57 | 44.33464 | -128.65408 | 35134 ft | 446 kts | 127° |
| 2026-04-14 14:57 | 44.29882 | -128.58336 | 35132 ft | 446 kts | 127° |
| 2026-04-14 14:58 | 44.26299 | -128.51280 | 35136 ft | 445 kts | 127° |
| 2026-04-14 14:58 | 44.22723 | -128.44254 | 35138 ft | 444 kts | 127° |
| 2026-04-14 14:59 | 44.19145 | -128.37242 | 35144 ft | 443 kts | 127° |
| 2026-04-14 14:59 | 44.15569 | -128.30249 | 35149 ft | 443 kts | 127° |
| 2026-04-14 15:00 | 44.11986 | -128.23261 | 35150 ft | 443 kts | 127° |
| 2026-04-14 15:00 | 44.08400 | -128.16282 | 35157 ft | 444 kts | 127° |
| 2026-04-14 15:01 | 44.04803 | -128.09301 | 35154 ft | 444 kts | 127° |
| 2026-04-14 15:01 | 44.01232 | -128.02384 | 35157 ft | 444 kts | 127° |
| 2026-04-14 15:02 | 43.97633 | -127.95431 | 35160 ft | 443 kts | 127° |
| 2026-04-14 15:02 | 43.94029 | -127.88485 | 35161 ft | 442 kts | 127° |
| 2026-04-14 15:03 | 43.90435 | -127.81573 | 35164 ft | 441 kts | 127° |
| 2026-04-14 15:03 | 43.86845 | -127.74686 | 35162 ft | 440 kts | 127° |
| 2026-04-14 15:04 | 43.83258 | -127.67822 | 35168 ft | 439 kts | 127° |
| 2026-04-14 15:04 | 43.79673 | -127.60976 | 35171 ft | 439 kts | 127° |
| 2026-04-14 15:05 | 43.76090 | -127.54153 | 35179 ft | 438 kts | 127° |
| 2026-04-14 15:05 | 43.72507 | -127.47343 | 35184 ft | 438 kts | 127° |
| 2026-04-14 15:06 | 43.68923 | -127.40546 | 35176 ft | 437 kts | 127° |
| 2026-04-14 15:06 | 43.65338 | -127.33764 | 35178 ft | 437 kts | 127° |
| 2026-04-14 15:07 | 43.61754 | -127.27001 | 35185 ft | 436 kts | 127° |
| 2026-04-14 15:07 | 43.58171 | -127.20254 | 35184 ft | 435 kts | 127° |
| 2026-04-14 15:08 | 43.54590 | -127.13527 | 35190 ft | 435 kts | 127° |
| 2026-04-14 15:08 | 43.51008 | -127.06813 | 35189 ft | 435 kts | 127° |
| 2026-04-14 15:09 | 43.47427 | -127.00116 | 35194 ft | 434 kts | 127° |
| 2026-04-14 15:09 | 43.43845 | -126.93431 | 35200 ft | 434 kts | 127° |
| 2026-04-14 15:10 | 43.40263 | -126.86761 | 35199 ft | 433 kts | 127° |
| 2026-04-14 15:10 | 43.36678 | -126.80100 | 35203 ft | 433 kts | 127° |
| 2026-04-14 15:11 | 43.33095 | -126.73456 | 35202 ft | 433 kts | 127° |
| 2026-04-14 15:11 | 43.29237 | -126.67150 | 35204 ft | 430 kts | 141° |
| 2026-04-14 15:12 | 43.24456 | -126.62297 | 35202 ft | 427 kts | 148° |
| 2026-04-14 15:12 | 43.19576 | -126.57645 | 35209 ft | 427 kts | 148° |
| 2026-04-14 15:13 | 43.14705 | -126.52971 | 35217 ft | 428 kts | 147° |
| 2026-04-14 15:13 | 43.09844 | -126.48268 | 35219 ft | 428 kts | 147° |
| 2026-04-14 15:14 | 43.04987 | -126.43559 | 35219 ft | 428 kts | 147° |
| 2026-04-14 15:14 | 43.00167 | -126.38891 | 35219 ft | 427 kts | 147° |
| 2026-04-14 15:15 | 42.95321 | -126.34208 | 35226 ft | 427 kts | 147° |
| 2026-04-14 15:15 | 42.90478 | -126.29537 | 35224 ft | 426 kts | 147° |
| 2026-04-14 15:16 | 42.85641 | -126.24882 | 35228 ft | 425 kts | 147° |
| 2026-04-14 15:16 | 42.80808 | -126.20240 | 35228 ft | 425 kts | 147° |
| 2026-04-14 15:17 | 42.75976 | -126.15608 | 35231 ft | 425 kts | 147° |
| 2026-04-14 15:17 | 42.71144 | -126.10985 | 35233 ft | 424 kts | 147° |
| 2026-04-14 15:18 | 42.66313 | -126.06372 | 35234 ft | 425 kts | 147° |
| 2026-04-14 15:18 | 42.61476 | -126.01762 | 35238 ft | 425 kts | 147° |
| 2026-04-14 15:19 | 42.56639 | -125.97161 | 35237 ft | 425 kts | 147° |
| 2026-04-14 15:19 | 42.51798 | -125.92565 | 35241 ft | 425 kts | 147° |
| 2026-04-14 15:20 | 42.46961 | -125.87981 | 35236 ft | 424 kts | 147° |
| 2026-04-14 15:20 | 42.42126 | -125.83409 | 35241 ft | 424 kts | 147° |
| 2026-04-14 15:21 | 42.37296 | -125.78849 | 35249 ft | 423 kts | 147° |
| 2026-04-14 15:21 | 42.32462 | -125.74296 | 35247 ft | 423 kts | 147° |
| 2026-04-14 15:22 | 42.27634 | -125.69756 | 35247 ft | 423 kts | 147° |
| 2026-04-14 15:22 | 42.22806 | -125.65224 | 35247 ft | 422 kts | 146° |
| 2026-04-14 15:23 | 42.18798 | -125.61469 | 35253 ft | 422 kts | 146° |
| 2026-04-14 15:23 | 42.13978 | -125.56961 | 35255 ft | 422 kts | 146° |
| 2026-04-14 15:24 | 42.09154 | -125.52458 | 35257 ft | 422 kts | 146° |
| 2026-04-14 15:24 | 42.04334 | -125.47966 | 35255 ft | 421 kts | 146° |
| 2026-04-14 15:25 | 41.99513 | -125.43483 | 35255 ft | 421 kts | 146° |
| 2026-04-14 15:25 | 41.94690 | -125.39006 | 35261 ft | 421 kts | 146° |
| 2026-04-14 15:26 | 41.89869 | -125.34538 | 35261 ft | 421 kts | 146° |
| 2026-04-14 15:26 | 41.85048 | -125.30080 | 35264 ft | 421 kts | 146° |
| 2026-04-14 15:27 | 41.80223 | -125.25627 | 35267 ft | 421 kts | 146° |
| 2026-04-14 15:27 | 41.75397 | -125.21179 | 35265 ft | 421 kts | 146° |
| 2026-04-14 15:28 | 41.70567 | -125.16737 | 35268 ft | 421 kts | 146° |
| 2026-04-14 15:28 | 41.65733 | -125.12300 | 35251 ft | 421 kts | 146° |
| 2026-04-14 15:29 | 41.60901 | -125.07873 | 35260 ft | 421 kts | 146° |
| 2026-04-14 15:29 | 41.56071 | -125.03455 | 35266 ft | 421 kts | 146° |
| 2026-04-14 15:30 | 41.51242 | -124.99047 | 35265 ft | 421 kts | 146° |
| 2026-04-14 15:30 | 41.46442 | -124.94674 | 35269 ft | 421 kts | 146° |
| 2026-04-14 15:31 | 41.41609 | -124.90278 | 35268 ft | 421 kts | 146° |
| 2026-04-14 15:31 | 41.36773 | -124.85887 | 35263 ft | 421 kts | 146° |
| 2026-04-14 15:32 | 41.31934 | -124.81502 | 35265 ft | 421 kts | 146° |
| 2026-04-14 15:32 | 41.27092 | -124.77122 | 35266 ft | 421 kts | 146° |
| 2026-04-14 15:33 | 41.22252 | -124.72751 | 35264 ft | 421 kts | 146° |
| 2026-04-14 15:33 | 41.17407 | -124.68385 | 35261 ft | 421 kts | 146° |
| 2026-04-14 15:34 | 41.12564 | -124.64028 | 35265 ft | 421 kts | 146° |
| 2026-04-14 15:34 | 41.07719 | -124.59677 | 35267 ft | 420 kts | 146° |
| 2026-04-14 15:35 | 41.02875 | -124.55334 | 35266 ft | 420 kts | 146° |
| 2026-04-14 15:35 | 40.98027 | -124.50997 | 35264 ft | 421 kts | 146° |
| 2026-04-14 15:36 | 40.93178 | -124.46666 | 35265 ft | 421 kts | 146° |
| 2026-04-14 15:36 | 40.88327 | -124.42341 | 35265 ft | 420 kts | 146° |
| 2026-04-14 15:37 | 40.83477 | -124.38023 | 35248 ft | 421 kts | 146° |
| 2026-04-14 15:37 | 40.78626 | -124.33713 | 35263 ft | 420 kts | 146° |
| 2026-04-14 15:38 | 40.73776 | -124.29411 | 35266 ft | 420 kts | 146° |
| 2026-04-14 15:38 | 40.68924 | -124.25115 | 35265 ft | 420 kts | 146° |
| 2026-04-14 15:39 | 40.63847 | -124.21323 | 35276 ft | 420 kts | 155° |
| 2026-04-14 15:39 | 40.58522 | -124.18150 | 35264 ft | 420 kts | 157° |
| 2026-04-14 15:40 | 40.53186 | -124.15000 | 35268 ft | 421 kts | 156° |
| 2026-04-14 15:40 | 40.47860 | -124.11809 | 35271 ft | 421 kts | 156° |
| 2026-04-14 15:41 | 40.42535 | -124.08594 | 35277 ft | 421 kts | 156° |
| 2026-04-14 15:41 | 40.37242 | -124.05395 | 35266 ft | 422 kts | 156° |
| 2026-04-14 15:42 | 40.31917 | -124.02182 | 35264 ft | 421 kts | 156° |
| 2026-04-14 15:42 | 40.26590 | -123.98973 | 35253 ft | 421 kts | 156° |
| 2026-04-14 15:43 | 40.21264 | -123.95772 | 35256 ft | 421 kts | 156° |
| 2026-04-14 15:43 | 40.15938 | -123.92575 | 35254 ft | 421 kts | 156° |
| 2026-04-14 15:44 | 40.10610 | -123.89384 | 35249 ft | 421 kts | 156° |
| 2026-04-14 15:44 | 40.05285 | -123.86200 | 35249 ft | 421 kts | 156° |
| 2026-04-14 15:45 | 39.99958 | -123.83020 | 35246 ft | 421 kts | 156° |
| 2026-04-14 15:45 | 39.94633 | -123.79846 | 35244 ft | 421 kts | 156° |
| 2026-04-14 15:46 | 39.89299 | -123.76673 | 35246 ft | 421 kts | 156° |
| 2026-04-14 15:46 | 39.83968 | -123.73507 | 35234 ft | 421 kts | 156° |
| 2026-04-14 15:47 | 39.78631 | -123.70343 | 35238 ft | 421 kts | 156° |
| 2026-04-14 15:47 | 39.73294 | -123.67184 | 35228 ft | 421 kts | 156° |
| 2026-04-14 15:48 | 39.67996 | -123.64054 | 35238 ft | 421 kts | 156° |
| 2026-04-14 15:48 | 39.62665 | -123.60909 | 35234 ft | 421 kts | 156° |
| 2026-04-14 15:49 | 39.57333 | -123.57769 | 35227 ft | 421 kts | 156° |
| 2026-04-14 15:49 | 39.52004 | -123.54636 | 35238 ft | 421 kts | 156° |
| 2026-04-14 15:50 | 39.46667 | -123.51504 | 35228 ft | 421 kts | 156° |
| 2026-04-14 15:50 | 39.41333 | -123.48379 | 35230 ft | 421 kts | 156° |
| 2026-04-14 15:51 | 39.35996 | -123.45257 | 35232 ft | 421 kts | 156° |
| 2026-04-14 15:51 | 39.30652 | -123.42137 | 35231 ft | 422 kts | 156° |
| 2026-04-14 15:52 | 39.25306 | -123.39020 | 35222 ft | 422 kts | 156° |
| 2026-04-14 15:52 | 39.19959 | -123.35908 | 35227 ft | 422 kts | 156° |
| 2026-04-14 15:53 | 39.14606 | -123.32797 | 35220 ft | 422 kts | 156° |
| 2026-04-14 15:53 | 39.09253 | -123.29691 | 35216 ft | 422 kts | 156° |
| 2026-04-14 15:54 | 39.01572 | -123.24323 | 35231 ft | 421 kts | 145° |
| 2026-04-14 15:55 | 38.96767 | -123.19999 | 35225 ft | 422 kts | 144° |
| 2026-04-14 15:55 | 38.91963 | -123.15676 | 35234 ft | 422 kts | 145° |
| 2026-04-14 15:56 | 38.87138 | -123.11393 | 35221 ft | 422 kts | 145° |
| 2026-04-14 15:56 | 38.82302 | -123.07136 | 35220 ft | 421 kts | 145° |
| 2026-04-14 15:57 | 38.77469 | -123.02896 | 35212 ft | 420 kts | 146° |
| 2026-04-14 15:57 | 38.72645 | -122.98673 | 35223 ft | 420 kts | 146° |
| 2026-04-14 15:58 | 38.67822 | -122.94457 | 35222 ft | 420 kts | 146° |
| 2026-04-14 15:58 | 38.63000 | -122.90248 | 35220 ft | 420 kts | 146° |
| 2026-04-14 15:59 | 38.58177 | -122.86045 | 35228 ft | 420 kts | 146° |
| 2026-04-14 15:59 | 38.53350 | -122.81846 | 35220 ft | 420 kts | 146° |
| 2026-04-14 16:00 | 38.48525 | -122.77655 | 35212 ft | 419 kts | 146° |
| 2026-04-14 16:00 | 38.43734 | -122.73501 | 35220 ft | 419 kts | 146° |
| 2026-04-14 16:01 | 38.38913 | -122.69327 | 35225 ft | 419 kts | 146° |
| 2026-04-14 16:01 | 38.34092 | -122.65161 | 35216 ft | 419 kts | 146° |
| 2026-04-14 16:02 | 38.29269 | -122.60999 | 35244 ft | 419 kts | 146° |
| 2026-04-14 16:02 | 38.24443 | -122.56842 | 35232 ft | 419 kts | 146° |
| 2026-04-14 16:03 | 38.19617 | -122.52691 | 35226 ft | 419 kts | 146° |
| 2026-04-14 16:03 | 38.14792 | -122.48548 | 35226 ft | 418 kts | 146° |
| 2026-04-14 16:04 | 38.09973 | -122.44417 | 35229 ft | 418 kts | 146° |
| 2026-04-14 16:04 | 38.05154 | -122.40293 | 35223 ft | 418 kts | 146° |
| 2026-04-14 16:05 | 38.00331 | -122.36172 | 35212 ft | 418 kts | 146° |
| 2026-04-14 16:05 | 37.95505 | -122.32055 | 35232 ft | 419 kts | 146° |
| 2026-04-14 16:06 | 37.90699 | -122.27961 | 35238 ft | 419 kts | 146° |
| 2026-04-14 16:06 | 37.85862 | -122.23848 | 35248 ft | 419 kts | 146° |
| 2026-04-14 16:07 | 37.81025 | -122.19741 | 35263 ft | 418 kts | 146° |
| 2026-04-14 16:07 | 37.76190 | -122.15643 | 35267 ft | 418 kts | 146° |
| 2026-04-14 16:08 | 37.71360 | -122.11555 | 35233 ft | 418 kts | 146° |
| 2026-04-14 16:08 | 37.66531 | -122.07475 | 35242 ft | 417 kts | 146° |
| 2026-04-14 16:09 | 37.61706 | -122.03405 | 35250 ft | 417 kts | 146° |
| 2026-04-14 16:09 | 37.56881 | -121.99341 | 35246 ft | 417 kts | 146° |
| 2026-04-14 16:10 | 37.52058 | -121.95285 | 35258 ft | 416 kts | 146° |
| 2026-04-14 16:10 | 37.47239 | -121.91239 | 35264 ft | 416 kts | 146° |
| 2026-04-14 16:11 | 37.42421 | -121.87200 | 35257 ft | 416 kts | 146° |
| 2026-04-14 16:11 | 37.37601 | -121.83166 | 35255 ft | 416 kts | 146° |
| 2026-04-14 16:12 | 37.32785 | -121.79141 | 35275 ft | 415 kts | 146° |
| 2026-04-14 16:12 | 37.27968 | -121.75122 | 35263 ft | 416 kts | 146° |
| 2026-04-14 16:13 | 37.23148 | -121.71106 | 35224 ft | 416 kts | 146° |
| 2026-04-14 16:13 | 37.18327 | -121.67097 | 35230 ft | 415 kts | 146° |
| 2026-04-14 16:14 | 37.14327 | -121.63774 | 35246 ft | 415 kts | 146° |
| 2026-04-14 16:14 | 37.09518 | -121.59786 | 35253 ft | 414 kts | 146° |
| 2026-04-14 16:15 | 37.04713 | -121.55807 | 35254 ft | 414 kts | 146° |
| 2026-04-14 16:15 | 36.99912 | -121.51837 | 35278 ft | 413 kts | 146° |
| 2026-04-14 16:16 | 36.95109 | -121.47872 | 35274 ft | 414 kts | 146° |
| 2026-04-14 16:16 | 36.90297 | -121.43906 | 35271 ft | 415 kts | 146° |
| 2026-04-14 16:17 | 36.85481 | -121.39942 | 35266 ft | 415 kts | 146° |
| 2026-04-14 16:17 | 36.80658 | -121.35979 | 35271 ft | 415 kts | 146° |
| 2026-04-14 16:18 | 36.75833 | -121.32019 | 35263 ft | 415 kts | 146° |
| 2026-04-14 16:18 | 36.71004 | -121.28063 | 35257 ft | 415 kts | 146° |
| 2026-04-14 16:19 | 36.66174 | -121.24112 | 35274 ft | 415 kts | 146° |
| 2026-04-14 16:19 | 36.61341 | -121.20165 | 35257 ft | 416 kts | 146° |
| 2026-04-14 16:20 | 36.56502 | -121.16219 | 35253 ft | 416 kts | 146° |
| 2026-04-14 16:20 | 36.51658 | -121.12274 | 35243 ft | 417 kts | 146° |
| 2026-04-14 16:21 | 36.46840 | -121.08357 | 35248 ft | 417 kts | 146° |
| 2026-04-14 16:21 | 36.41984 | -121.04414 | 35243 ft | 417 kts | 146° |
| 2026-04-14 16:22 | 36.37092 | -121.00449 | 35242 ft | 417 kts | 146° |
| 2026-04-14 16:22 | 36.32262 | -120.96540 | 35244 ft | 417 kts | 146° |
| 2026-04-14 16:23 | 36.27396 | -120.92608 | 35235 ft | 417 kts | 146° |
| 2026-04-14 16:23 | 36.22534 | -120.88684 | 35235 ft | 417 kts | 146° |
| 2026-04-14 16:24 | 36.17670 | -120.84765 | 35237 ft | 417 kts | 146° |
| 2026-04-14 16:24 | 36.12805 | -120.80852 | 35236 ft | 417 kts | 146° |
| 2026-04-14 16:25 | 36.07937 | -120.76941 | 35234 ft | 417 kts | 146° |
| 2026-04-14 16:25 | 36.03071 | -120.73038 | 35225 ft | 417 kts | 146° |
| 2026-04-14 16:26 | 35.98203 | -120.69139 | 35228 ft | 417 kts | 146° |
| 2026-04-14 16:26 | 35.93334 | -120.65245 | 35231 ft | 417 kts | 146° |
| 2026-04-14 16:27 | 35.88465 | -120.61356 | 35224 ft | 417 kts | 146° |
| 2026-04-14 16:27 | 35.83595 | -120.57472 | 35223 ft | 417 kts | 147° |
| 2026-04-14 16:28 | 35.78724 | -120.53593 | 35222 ft | 417 kts | 147° |
| 2026-04-14 16:28 | 35.73852 | -120.49719 | 35223 ft | 417 kts | 147° |
| 2026-04-14 16:29 | 35.69308 | -120.45339 | 35218 ft | 414 kts | 131° |
| 2026-04-14 16:29 | 35.65929 | -120.39655 | 35236 ft | 412 kts | 121° |
| 2026-04-14 16:30 | 35.62779 | -120.33771 | 35213 ft | 413 kts | 120° |
| 2026-04-14 16:30 | 35.59608 | -120.27886 | 35212 ft | 413 kts | 121° |
| 2026-04-14 16:31 | 35.56412 | -120.22024 | 35215 ft | 413 kts | 121° |
| 2026-04-14 16:31 | 35.53201 | -120.16171 | 35197 ft | 413 kts | 121° |
| 2026-04-14 16:32 | 35.50005 | -120.10360 | 35228 ft | 413 kts | 121° |
| 2026-04-14 16:32 | 35.46782 | -120.04509 | 35206 ft | 414 kts | 121° |
| 2026-04-14 16:33 | 35.43554 | -119.98659 | 35211 ft | 414 kts | 121° |
| 2026-04-14 16:33 | 35.40255 | -119.92683 | 35228 ft | 436 kts | 121° |
| 2026-04-14 16:33 | 35.38534 | -119.89565 | 35225 ft | 448 kts | 121° |
| 2026-04-14 16:34 | 35.36761 | -119.86361 | 35230 ft | 460 kts | 121° |
| 2026-04-14 16:34 | 35.34941 | -119.83076 | 35228 ft | 471 kts | 122° |
| 2026-04-14 16:34 | 35.33079 | -119.79723 | 35233 ft | 481 kts | 121° |
| 2026-04-14 16:35 | 35.29241 | -119.72819 | 35223 ft | 498 kts | 121° |
| 2026-04-14 16:35 | 35.25299 | -119.65745 | 35203 ft | 505 kts | 122° |
| 2026-04-14 16:36 | 35.21352 | -119.58679 | 35199 ft | 502 kts | 122° |
| 2026-04-14 16:36 | 35.17413 | -119.51637 | 35224 ft | 501 kts | 121° |
| 2026-04-14 16:37 | 35.13472 | -119.44602 | 35207 ft | 501 kts | 122° |
| 2026-04-14 16:37 | 35.09531 | -119.37579 | 35183 ft | 501 kts | 122° |
| 2026-04-14 16:38 | 35.05583 | -119.30559 | 35194 ft | 502 kts | 122° |
| 2026-04-14 16:38 | 35.01616 | -119.23519 | 34789 ft | 508 kts | 121° |
| 2026-04-14 16:38 | 34.99620 | -119.19981 | 34300 ft | 505 kts | 121° |
| 2026-04-14 16:39 | 34.97637 | -119.16474 | 33787 ft | 501 kts | 121° |
| 2026-04-14 16:39 | 34.95661 | -119.12981 | 33249 ft | 501 kts | 121° |
| 2026-04-14 16:39 | 34.93679 | -119.09477 | 32659 ft | 502 kts | 122° |
| 2026-04-14 16:39 | 34.91692 | -119.05968 | 32149 ft | 503 kts | 122° |
| 2026-04-14 16:40 | 34.89701 | -119.02457 | 31639 ft | 504 kts | 122° |
| 2026-04-14 16:40 | 34.87708 | -118.98946 | 31153 ft | 504 kts | 122° |
| 2026-04-14 16:40 | 34.85738 | -118.95478 | 30706 ft | 505 kts | 122° |
| 2026-04-14 16:40 | 34.83739 | -118.91964 | 30226 ft | 506 kts | 121° |
| 2026-04-14 16:41 | 34.81877 | -118.88360 | 29799 ft | 500 kts | 114° |
| 2026-04-14 16:41 | 34.80475 | -118.84532 | 29424 ft | 491 kts | 105° |
| 2026-04-14 16:41 | 34.79522 | -118.80592 | 29018 ft | 481 kts | 96° |
| 2026-04-14 16:41 | 34.78972 | -118.76612 | 28654 ft | 474 kts | 94° |
| 2026-04-14 16:42 | 34.78464 | -118.72670 | 28274 ft | 470 kts | 94° |
| 2026-04-14 16:42 | 34.77961 | -118.68758 | 27881 ft | 466 kts | 94° |
| 2026-04-14 16:42 | 34.77452 | -118.64884 | 27546 ft | 463 kts | 94° |
| 2026-04-14 16:42 | 34.76935 | -118.61035 | 27187 ft | 459 kts | 94° |
| 2026-04-14 16:43 | 34.76413 | -118.57214 | 26832 ft | 456 kts | 94° |
| 2026-04-14 16:43 | 34.75889 | -118.53424 | 26473 ft | 453 kts | 94° |
| 2026-04-14 16:43 | 34.75364 | -118.49659 | 26132 ft | 450 kts | 94° |
| 2026-04-14 16:43 | 34.74841 | -118.45919 | 25782 ft | 447 kts | 94° |
| 2026-04-14 16:44 | 34.74319 | -118.42200 | 25438 ft | 445 kts | 94° |
| 2026-04-14 16:44 | 34.73801 | -118.38510 | 25208 ft | 441 kts | 94° |
| 2026-04-14 16:44 | 34.73284 | -118.34836 | 25186 ft | 441 kts | 94° |
| 2026-04-14 16:45 | 34.72252 | -118.27513 | 25168 ft | 440 kts | 94° |
| 2026-04-14 16:45 | 34.71735 | -118.23850 | 25157 ft | 440 kts | 94° |
| 2026-04-14 16:45 | 34.71214 | -118.20173 | 24923 ft | 442 kts | 95° |
| 2026-04-14 16:45 | 34.70693 | -118.16503 | 24460 ft | 439 kts | 95° |
| 2026-04-14 16:46 | 34.70174 | -118.12879 | 24013 ft | 432 kts | 95° |
| 2026-04-14 16:46 | 34.69669 | -118.09357 | 23508 ft | 426 kts | 95° |
| 2026-04-14 16:46 | 34.69162 | -118.05822 | 22982 ft | 423 kts | 95° |
| 2026-04-14 16:46 | 34.68658 | -118.02309 | 22445 ft | 421 kts | 95° |
| 2026-04-14 16:47 | 34.68157 | -117.98817 | 21918 ft | 419 kts | 96° |
| 2026-04-14 16:47 | 34.67657 | -117.95336 | 21399 ft | 417 kts | 96° |
| 2026-04-14 16:47 | 34.67160 | -117.91885 | 20888 ft | 416 kts | 96° |
| 2026-04-14 16:47 | 34.66658 | -117.88414 | 20385 ft | 415 kts | 96° |
| 2026-04-14 16:48 | 34.66159 | -117.84969 | 19884 ft | 414 kts | 96° |
| 2026-04-14 16:48 | 34.65660 | -117.81532 | 19389 ft | 412 kts | 97° |
| 2026-04-14 16:48 | 34.65165 | -117.78130 | 18906 ft | 405 kts | 96° |
| 2026-04-14 16:48 | 34.65062 | -117.74829 | 18366 ft | 381 kts | 78° |
| 2026-04-14 16:49 | 34.65631 | -117.71784 | 17840 ft | 361 kts | 72° |
| 2026-04-14 16:49 | 34.66252 | -117.68886 | 17278 ft | 348 kts | 72° |
| 2026-04-14 16:49 | 34.66855 | -117.66094 | 16735 ft | 337 kts | 71° |
| 2026-04-14 16:49 | 34.67441 | -117.63384 | 16198 ft | 327 kts | 71° |
| 2026-04-14 16:50 | 34.68011 | -117.60743 | 15667 ft | 319 kts | 71° |
| 2026-04-14 16:50 | 34.68567 | -117.58165 | 15157 ft | 312 kts | 71° |
| 2026-04-14 16:50 | 34.69105 | -117.55661 | 14797 ft | 301 kts | 71° |
| 2026-04-14 16:50 | 34.69625 | -117.53228 | 14317 ft | 295 kts | 71° |
| 2026-04-14 16:51 | 34.70140 | -117.50818 | 13727 ft | 294 kts | 71° |
| 2026-04-14 16:51 | 34.70654 | -117.48427 | 13112 ft | 292 kts | 72° |
| 2026-04-14 16:51 | 34.71270 | -117.46108 | 12509 ft | 285 kts | 57° |
| 2026-04-14 16:51 | 34.72614 | -117.44440 | 11904 ft | 275 kts | 25° |
| 2026-04-14 16:52 | 34.74438 | -117.43911 | 11301 ft | 270 kts | 0° |
| 2026-04-14 16:52 | 34.76307 | -117.43969 | 10705 ft | 269 kts | 356° |
| 2026-04-14 16:52 | 34.78182 | -117.44102 | 10091 ft | 270 kts | 355° |
| 2026-04-14 16:52 | 34.80051 | -117.44244 | 9493 ft | 268 kts | 355° |
| 2026-04-14 16:53 | 34.81902 | -117.44390 | 8917 ft | 265 kts | 355° |
| 2026-04-14 16:53 | 34.83738 | -117.44538 | 8369 ft | 263 kts | 355° |
| 2026-04-14 16:53 | 34.85530 | -117.44605 | 7802 ft | 261 kts | 6° |
| 2026-04-14 16:53 | 34.87204 | -117.43734 | 7203 ft | 263 kts | 41° |
| 2026-04-14 16:54 | 34.88138 | -117.41927 | 6572 ft | 257 kts | 76° |
| 2026-04-14 16:54 | 34.88052 | -117.39786 | 5830 ft | 258 kts | 113° |
| 2026-04-14 16:54 | 34.86899 | -117.38242 | 5849 ft | 253 kts | 152° |
| 2026-04-14 16:54 | 34.85148 | -117.37807 | 5882 ft | 264 kts | 187° |
| 2026-04-14 16:55 | 34.83345 | -117.38298 | 5914 ft | 268 kts | 194° |
| 2026-04-14 16:55 | 34.81530 | -117.38672 | 5913 ft | 257 kts | 187° |
| 2026-04-14 16:55 | 34.79844 | -117.38823 | 5894 ft | 230 kts | 182° |
| 2026-04-14 16:55 | 34.78310 | -117.38847 | 5858 ft | 214 kts | 181° |
| 2026-04-14 16:56 | 34.76843 | -117.38837 | 5778 ft | 207 kts | 180° |
| 2026-04-14 16:56 | 34.75432 | -117.38821 | 5516 ft | 197 kts | 180° |
| 2026-04-14 16:56 | 34.74095 | -117.38805 | 5259 ft | 187 kts | 181° |
| 2026-04-14 16:56 | 34.72843 | -117.38791 | 5035 ft | 172 kts | 181° |
| 2026-04-14 16:57 | 34.71688 | -117.38777 | 4876 ft | 163 kts | 181° |
| 2026-04-14 16:57 | 34.70554 | -117.38765 | 4601 ft | 158 kts | 181° |
| 2026-04-14 16:57 | 34.69503 | -117.38753 | 4395 ft | 144 kts | 182° |
| 2026-04-14 16:57 | 34.68528 | -117.38738 | 4200 ft | 139 kts | 181° |
| 2026-04-14 16:58 | 34.67559 | -117.38707 | 3940 ft | 140 kts | 181° |
| 2026-04-14 16:58 | 34.66609 | -117.38680 | 3710 ft | 134 kts | 181° |
| 2026-04-14 16:58 | 34.65680 | -117.38678 | 3558 ft | 134 kts | 182° |
| 2026-04-14 16:58 | 34.64753 | -117.38696 | 3395 ft | 132 kts | 184° |
| 2026-04-14 16:59 | 34.63831 | -117.38699 | 3257 ft | 136 kts | 181° |
| 2026-04-14 16:59 | 34.62884 | -117.38681 | 3099 ft | 135 kts | 182° |
| 2026-04-14 16:59 | 34.61963 | -117.38671 | 2867 ft | 128 kts | 183° |
| 2026-04-14 16:59 | 34.61162 | -117.38676 | 2868 ft | 99 kts | 180° |
| 2026-04-14 17:00 | 34.60591 | -117.38667 | 2861 ft | 65 kts | 180° |
| 2026-04-14 17:00 | 34.60261 | -117.38667 | 2857 ft | 30 kts | 179° |
| 2026-04-14 17:00 | 34.60157 | -117.38666 | 2862 ft | 7 kts | 179° |
| 2026-04-14 17:00 | 34.60095 | -117.38664 | 2863 ft | 14 kts | 178° |
| 2026-04-14 17:01 | 34.59998 | -117.38658 | 2864 ft | 14 kts | 176° |
| 2026-04-14 17:01 | 34.59875 | -117.38654 | 2866 ft | 21 kts | 179° |
| 2026-04-14 17:01 | 34.59729 | -117.38654 | 2870 ft | 21 kts | 180° |
| 2026-04-14 17:01 | 34.59547 | -117.38655 | 2868 ft | 28 kts | 172° |
| 2026-04-14 17:02 | 34.59488 | -117.38472 | 2867 ft | 25 kts | 86° |
| 2026-04-14 17:02 | 34.59421 | -117.38312 | 2865 ft | 22 kts | 139° |
| 2026-04-14 17:02 | 34.59345 | -117.38232 | 2865 ft | 21 kts | 139° |
| 2026-04-14 17:02 | 34.59240 | -117.38107 | 2868 ft | 21 kts | 133° |
| 2026-04-14 17:03 | 34.59143 | -117.37980 | 2868 ft | 20 kts | 133° |
| 2026-04-14 17:03 | 34.59049 | -117.37856 | 2870 ft | 20 kts | 133° |
| 2026-04-14 17:03 | 34.58968 | -117.37756 | 2870 ft | 14 kts | 136° |
| 2026-04-14 17:03 | 34.58931 | -117.37730 | 2870 ft | 5 kts | 188° |
| 2026-04-14 17:04 | 34.58878 | -117.37768 | 2870 ft | 15 kts | 221° |
| 2026-04-14 17:04 | 34.58797 | -117.37864 | 2871 ft | 16 kts | 226° |
| 2026-04-14 17:04 | 34.58720 | -117.37960 | 2870 ft | 16 kts | 226° |
| 2026-04-14 17:04 | 34.58643 | -117.38048 | 2868 ft | 15 kts | 223° |
| 2026-04-14 17:05 | 34.58567 | -117.38129 | 2868 ft | 13 kts | 205° |
| 2026-04-14 17:05 | 34.58524 | -117.38092 | 2870 ft | 7 kts | 135° |
| 2026-04-14 17:05 | 34.58490 | -117.38050 | 2871 ft | 7 kts | 135° |
| 2026-04-14 17:05 | 34.58475 | -117.38032 | 2872 ft | 0 kts | 133° |